<?xml version='1.0' encoding='UTF-8'?><gpx version="1.1" creator="JPX - https://github.com/jenetics/jpx" xmlns="http://www.topografix.com/GPX/1/1"><trk><trkseg><trkpt lat="53.76466950040653" lon="11.097712401135118"><ele>50.00000000000001</ele><time>2026-04-08T17:40:08.821Z</time></trkpt><trkpt lat="53.76470447077496" lon="11.097605716925736"><ele>50.0</ele><time>2026-04-08T17:41:01.819Z</time></trkpt><trkpt lat="53.76464266606838" lon="11.097627357167733"><ele>50.0</ele><time>2026-04-08T17:41:04.819Z</time></trkpt><trkpt lat="53.76469292981799" lon="11.097706210961714"><ele>50.0</ele><time>2026-04-08T17:41:08.819Z</time></trkpt><trkpt lat="53.76477748753371" lon="11.097685131282125"><ele>50.00000000000001</ele><time>2026-04-08T17:41:11.819Z</time></trkpt><trkpt lat="53.764864125353384" lon="11.097691271465283"><ele>50.0</ele><time>2026-04-08T17:41:13.819Z</time></trkpt><trkpt lat="53.76496903905643" lon="11.097680052001294"><ele>50.00000000000001</ele><time>2026-04-08T17:41:15.819Z</time></trkpt><trkpt lat="53.765035256869574" lon="11.097684402693337"><ele>50.0</ele><time>2026-04-08T17:41:16.819Z</time></trkpt><trkpt lat="53.76511396795374" lon="11.097688331333327"><ele>50.0</ele><time>2026-04-08T17:41:17.819Z</time></trkpt><trkpt lat="53.76518848169277" lon="11.097691686176722"><ele>50.0</ele><time>2026-04-08T17:41:18.819Z</time></trkpt><trkpt lat="53.76526422992884" lon="11.097696233698601"><ele>50.00000000000001</ele><time>2026-04-08T17:41:19.819Z</time></trkpt><trkpt lat="53.76535534234159" lon="11.097689703956702"><ele>50.0</ele><time>2026-04-08T17:41:20.819Z</time></trkpt><trkpt lat="53.76544801081137" lon="11.097644463261153"><ele>49.4</ele><time>2026-04-08T17:41:21.819Z</time></trkpt><trkpt lat="53.76553587980909" lon="11.097541239925826"><ele>48.8</ele><time>2026-04-08T17:41:22.819Z</time></trkpt><trkpt lat="53.765590112385404" lon="11.097432064750356"><ele>48.2</ele><time>2026-04-08T17:41:23.819Z</time></trkpt><trkpt lat="53.76561451032449" lon="11.09730072533808"><ele>47.6</ele><time>2026-04-08T17:41:24.819Z</time></trkpt><trkpt lat="53.765584409898715" lon="11.097172733736532"><ele>47.0</ele><time>2026-04-08T17:41:25.819Z</time></trkpt><trkpt lat="53.76554380315498" lon="11.09700914542421"><ele>47.0</ele><time>2026-04-08T17:41:26.819Z</time></trkpt><trkpt lat="53.765495704082795" lon="11.096827118850646"><ele>47.0</ele><time>2026-04-08T17:41:27.819Z</time></trkpt><trkpt lat="53.76544959062025" lon="11.096660629565408"><ele>47.0</ele><time>2026-04-08T17:41:28.819Z</time></trkpt><trkpt lat="53.7653891502844" lon="11.096528676410987"><ele>47.0</ele><time>2026-04-08T17:41:29.819Z</time></trkpt><trkpt lat="53.76531184714462" lon="11.096369647457585"><ele>47.0</ele><time>2026-04-08T17:41:30.819Z</time></trkpt><trkpt lat="53.76519032361827" lon="11.096330845238603"><ele>47.400000000000006</ele><time>2026-04-08T17:41:31.819Z</time></trkpt><trkpt lat="53.765078354093674" lon="11.096317200470603"><ele>47.800000000000004</ele><time>2026-04-08T17:41:32.819Z</time></trkpt><trkpt lat="53.764968037553466" lon="11.096304646905411"><ele>48.2</ele><time>2026-04-08T17:41:33.819Z</time></trkpt><trkpt lat="53.764867059391705" lon="11.096291653271086"><ele>48.6</ele><time>2026-04-08T17:41:34.819Z</time></trkpt><trkpt lat="53.764775960241316" lon="11.096278363677492"><ele>49.0</ele><time>2026-04-08T17:41:35.819Z</time></trkpt><trkpt lat="53.76470696375335" lon="11.096262723381786"><ele>49.0</ele><time>2026-04-08T17:41:36.819Z</time></trkpt><trkpt lat="53.76462164813222" lon="11.096249185371677"><ele>49.0</ele><time>2026-04-08T17:41:38.818Z</time></trkpt><trkpt lat="53.76457699047045" lon="11.096157989157499"><ele>49.0</ele><time>2026-04-08T17:41:41.818Z</time></trkpt><trkpt lat="53.764472613127275" lon="11.09613903690535"><ele>49.0</ele><time>2026-04-08T17:41:43.818Z</time></trkpt><trkpt lat="53.76437395848931" lon="11.09626881539245"><ele>49.0</ele><time>2026-04-08T17:41:45.818Z</time></trkpt><trkpt lat="53.764319687594856" lon="11.096342859022279"><ele>48.99999999999999</ele><time>2026-04-08T17:41:46.818Z</time></trkpt><trkpt lat="53.764267021745646" lon="11.09643134805543"><ele>49.0</ele><time>2026-04-08T17:41:47.818Z</time></trkpt><trkpt lat="53.76421478362732" lon="11.096537580774246"><ele>49.0</ele><time>2026-04-08T17:41:48.818Z</time></trkpt><trkpt lat="53.764148477726955" lon="11.096623505154565"><ele>49.0</ele><time>2026-04-08T17:41:49.818Z</time></trkpt><trkpt lat="53.76417736876411" lon="11.096778887350029"><ele>48.99999999999999</ele><time>2026-04-08T17:41:50.818Z</time></trkpt><trkpt lat="53.764078450130775" lon="11.096867801256822"><ele>49.0</ele><time>2026-04-08T17:41:51.818Z</time></trkpt><trkpt lat="53.76407989240777" lon="11.097013075037733"><ele>49.0</ele><time>2026-04-08T17:41:52.818Z</time></trkpt><trkpt lat="53.7640465475595" lon="11.097169377394495"><ele>49.0</ele><time>2026-04-08T17:41:53.818Z</time></trkpt><trkpt lat="53.76401027784271" lon="11.09732964687392"><ele>49.0</ele><time>2026-04-08T17:41:54.818Z</time></trkpt><trkpt lat="53.76397301719945" lon="11.097492813026749"><ele>49.0</ele><time>2026-04-08T17:41:55.818Z</time></trkpt><trkpt lat="53.7639456897339" lon="11.097683768959191"><ele>49.0</ele><time>2026-04-08T17:41:56.818Z</time></trkpt><trkpt lat="53.76392023319011" lon="11.097886330892287"><ele>49.5</ele><time>2026-04-08T17:41:57.818Z</time></trkpt><trkpt lat="53.763893117791525" lon="11.098102032666663"><ele>50.0</ele><time>2026-04-08T17:41:58.818Z</time></trkpt><trkpt lat="53.76386876767018" lon="11.098324791433521"><ele>50.5</ele><time>2026-04-08T17:41:59.818Z</time></trkpt><trkpt lat="53.76384710255896" lon="11.098544359022693"><ele>51.0</ele><time>2026-04-08T17:42:00.818Z</time></trkpt><trkpt lat="53.763822049599575" lon="11.098761396600764"><ele>51.0</ele><time>2026-04-08T17:42:01.818Z</time></trkpt><trkpt lat="53.76379156529931" lon="11.098973061535734"><ele>51.0</ele><time>2026-04-08T17:42:02.818Z</time></trkpt><trkpt lat="53.76373229373569" lon="11.09917455384886"><ele>51.0</ele><time>2026-04-08T17:42:03.818Z</time></trkpt><trkpt lat="53.763708258341026" lon="11.099397257266995"><ele>51.0</ele><time>2026-04-08T17:42:04.818Z</time></trkpt><trkpt lat="53.763665453994975" lon="11.099613267353654"><ele>51.0</ele><time>2026-04-08T17:42:05.818Z</time></trkpt><trkpt lat="53.76361371172708" lon="11.099829382277209"><ele>51.0</ele><time>2026-04-08T17:42:06.818Z</time></trkpt><trkpt lat="53.76355768336696" lon="11.100041761948956"><ele>51.0</ele><time>2026-04-08T17:42:07.818Z</time></trkpt><trkpt lat="53.76349038361227" lon="11.100254779767775"><ele>51.0</ele><time>2026-04-08T17:42:08.818Z</time></trkpt><trkpt lat="53.763422610464914" lon="11.100475082945373"><ele>51.0</ele><time>2026-04-08T17:42:09.818Z</time></trkpt><trkpt lat="53.76335618143834" lon="11.100701700869257"><ele>51.0</ele><time>2026-04-08T17:42:10.818Z</time></trkpt><trkpt lat="53.763278297435996" lon="11.100927248009041"><ele>51.0</ele><time>2026-04-08T17:42:11.818Z</time></trkpt><trkpt lat="53.76319490619715" lon="11.101155788941147"><ele>51.0</ele><time>2026-04-08T17:42:12.818Z</time></trkpt><trkpt lat="53.7631085630561" lon="11.101384401195839"><ele>51.0</ele><time>2026-04-08T17:42:13.818Z</time></trkpt><trkpt lat="53.763006188121864" lon="11.101586948667176"><ele>51.0</ele><time>2026-04-08T17:42:14.818Z</time></trkpt><trkpt lat="53.76291767305197" lon="11.101783914681173"><ele>50.75</ele><time>2026-04-08T17:42:15.818Z</time></trkpt><trkpt lat="53.76281848307945" lon="11.101952087142028"><ele>50.5</ele><time>2026-04-08T17:42:16.818Z</time></trkpt><trkpt lat="53.76272745884149" lon="11.102124821850449"><ele>50.25</ele><time>2026-04-08T17:42:17.818Z</time></trkpt><trkpt lat="53.76263541858581" lon="11.102301756770142"><ele>50.0</ele><time>2026-04-08T17:42:18.817Z</time></trkpt><trkpt lat="53.76254028506211" lon="11.102485984235587"><ele>50.66666666666667</ele><time>2026-04-08T17:42:19.817Z</time></trkpt><trkpt lat="53.76244337537731" lon="11.102709868245178"><ele>51.33333333333333</ele><time>2026-04-08T17:42:20.817Z</time></trkpt><trkpt lat="53.76232723868157" lon="11.102911982193836"><ele>52.0</ele><time>2026-04-08T17:42:21.817Z</time></trkpt><trkpt lat="53.76222404302263" lon="11.103128651868593"><ele>51.666666666666664</ele><time>2026-04-08T17:42:22.817Z</time></trkpt><trkpt lat="53.76210655124059" lon="11.103319308460225"><ele>51.33333333333333</ele><time>2026-04-08T17:42:23.817Z</time></trkpt><trkpt lat="53.76201509495222" lon="11.103499804619327"><ele>51.0</ele><time>2026-04-08T17:42:24.817Z</time></trkpt><trkpt lat="53.76190177250776" lon="11.103728112052883"><ele>51.0</ele><time>2026-04-08T17:42:25.817Z</time></trkpt><trkpt lat="53.761800529302974" lon="11.103955590114087"><ele>51.0</ele><time>2026-04-08T17:42:26.817Z</time></trkpt><trkpt lat="53.76171145887046" lon="11.104172347884967"><ele>51.0</ele><time>2026-04-08T17:42:27.817Z</time></trkpt><trkpt lat="53.761622188172446" lon="11.104390391224081"><ele>51.0</ele><time>2026-04-08T17:42:28.817Z</time></trkpt><trkpt lat="53.76153241060042" lon="11.104611672962113"><ele>51.0</ele><time>2026-04-08T17:42:29.817Z</time></trkpt><trkpt lat="53.76145170250612" lon="11.104819951754475"><ele>51.0</ele><time>2026-04-08T17:42:30.817Z</time></trkpt><trkpt lat="53.76136635267344" lon="11.105051102212212"><ele>50.66666666666667</ele><time>2026-04-08T17:42:31.817Z</time></trkpt><trkpt lat="53.7612948600788" lon="11.105264752763944"><ele>50.333333333333336</ele><time>2026-04-08T17:42:32.817Z</time></trkpt><trkpt lat="53.761222162955455" lon="11.105506565955304"><ele>50.0</ele><time>2026-04-08T17:42:33.817Z</time></trkpt><trkpt lat="53.7611527128729" lon="11.105752448086898"><ele>49.66666666666667</ele><time>2026-04-08T17:42:34.817Z</time></trkpt><trkpt lat="53.76109491972845" lon="11.106000129663466"><ele>49.33333333333333</ele><time>2026-04-08T17:42:35.817Z</time></trkpt><trkpt lat="53.76105467765094" lon="11.10627448008727"><ele>49.0</ele><time>2026-04-08T17:42:36.817Z</time></trkpt><trkpt lat="53.76102879955568" lon="11.106538412655413"><ele>50.666666666666664</ele><time>2026-04-08T17:42:37.817Z</time></trkpt><trkpt lat="53.761008411097556" lon="11.10679380993787"><ele>52.33333333333333</ele><time>2026-04-08T17:42:38.817Z</time></trkpt><trkpt lat="53.760987563027356" lon="11.107069719246867"><ele>54.0</ele><time>2026-04-08T17:42:39.817Z</time></trkpt><trkpt lat="53.760965290303474" lon="11.107327897092308"><ele>53.33333333333333</ele><time>2026-04-08T17:42:40.817Z</time></trkpt><trkpt lat="53.760940390106086" lon="11.107582572697254"><ele>52.666666666666664</ele><time>2026-04-08T17:42:41.817Z</time></trkpt><trkpt lat="53.76091755923479" lon="11.107897697986267"><ele>52.0</ele><time>2026-04-08T17:42:42.817Z</time></trkpt><trkpt lat="53.760911036685755" lon="11.108123099361332"><ele>52.0</ele><time>2026-04-08T17:42:43.817Z</time></trkpt><trkpt lat="53.76090679052272" lon="11.108382330984984"><ele>52.0</ele><time>2026-04-08T17:42:44.817Z</time></trkpt><trkpt lat="53.76090207195903" lon="11.108673784347177"><ele>52.0</ele><time>2026-04-08T17:42:45.817Z</time></trkpt><trkpt lat="53.7608988959371" lon="11.1088869048317"><ele>52.5</ele><time>2026-04-08T17:42:46.817Z</time></trkpt><trkpt lat="53.76089333137316" lon="11.109137911763094"><ele>53.0</ele><time>2026-04-08T17:42:47.817Z</time></trkpt><trkpt lat="53.7608809031472" lon="11.109384188764817"><ele>53.5</ele><time>2026-04-08T17:42:48.817Z</time></trkpt><trkpt lat="53.76087467136842" lon="11.109645123892273"><ele>54.0</ele><time>2026-04-08T17:42:49.817Z</time></trkpt><trkpt lat="53.76086966398692" lon="11.109860145672727"><ele>54.0</ele><time>2026-04-08T17:42:50.817Z</time></trkpt><trkpt lat="53.76086147258848" lon="11.110105122212012"><ele>54.0</ele><time>2026-04-08T17:42:51.817Z</time></trkpt><trkpt lat="53.760851001733954" lon="11.110376899273133"><ele>54.0</ele><time>2026-04-08T17:42:52.817Z</time></trkpt><trkpt lat="53.76084246914718" lon="11.1105983661013"><ele>54.0</ele><time>2026-04-08T17:42:53.817Z</time></trkpt><trkpt lat="53.76083485643969" lon="11.110820727711554"><ele>53.75</ele><time>2026-04-08T17:42:54.817Z</time></trkpt><trkpt lat="53.76082628512691" lon="11.111037716441112"><ele>53.5</ele><time>2026-04-08T17:42:55.817Z</time></trkpt><trkpt lat="53.76081797599924" lon="11.1112249357736"><ele>53.25</ele><time>2026-04-08T17:42:56.817Z</time></trkpt><trkpt lat="53.76080719078157" lon="11.111458611357142"><ele>53.0</ele><time>2026-04-08T17:42:57.817Z</time></trkpt><trkpt lat="53.760797942625494" lon="11.111646922853842"><ele>53.0</ele><time>2026-04-08T17:42:58.816Z</time></trkpt><trkpt lat="53.760785728166894" lon="11.111884517244462"><ele>53.0</ele><time>2026-04-08T17:42:59.816Z</time></trkpt><trkpt lat="53.76078106681717" lon="11.112116330545666"><ele>53.0</ele><time>2026-04-08T17:43:00.816Z</time></trkpt><trkpt lat="53.76076939462013" lon="11.112320177859763"><ele>53.0</ele><time>2026-04-08T17:43:01.816Z</time></trkpt><trkpt lat="53.76073959992415" lon="11.112480987422664"><ele>53.0</ele><time>2026-04-08T17:43:02.816Z</time></trkpt><trkpt lat="53.760725641906696" lon="11.112617066920109"><ele>53.0</ele><time>2026-04-08T17:43:03.816Z</time></trkpt><trkpt lat="53.760700664805555" lon="11.11279164429278"><ele>53.0</ele><time>2026-04-08T17:43:05.816Z</time></trkpt><trkpt lat="53.76068405861249" lon="11.112899681269328"><ele>53.0</ele><time>2026-04-08T17:43:06.816Z</time></trkpt><trkpt lat="53.76087784051118" lon="11.11297895546743"><ele>53.0</ele><time>2026-04-08T17:43:07.816Z</time></trkpt><trkpt lat="53.76094176813328" lon="11.112964153531566"><ele>53.0</ele><time>2026-04-08T17:43:08.816Z</time></trkpt><trkpt lat="53.761021531482804" lon="11.112932639369749"><ele>53.0</ele><time>2026-04-08T17:43:09.816Z</time></trkpt><trkpt lat="53.76110334175147" lon="11.112930302559146"><ele>53.0</ele><time>2026-04-08T17:43:10.816Z</time></trkpt><trkpt lat="53.76119036730651" lon="11.112920199620701"><ele>53.0</ele><time>2026-04-08T17:43:11.816Z</time></trkpt><trkpt lat="53.76134849750671" lon="11.112901842039623"><ele>52.2</ele><time>2026-04-08T17:43:13.816Z</time></trkpt><trkpt lat="53.76145971338092" lon="11.112876205327042"><ele>51.4</ele><time>2026-04-08T17:43:14.816Z</time></trkpt><trkpt lat="53.76155538539399" lon="11.112863958909196"><ele>50.6</ele><time>2026-04-08T17:43:15.816Z</time></trkpt><trkpt lat="53.76166856230885" lon="11.112850389914223"><ele>49.800000000000004</ele><time>2026-04-08T17:43:16.816Z</time></trkpt><trkpt lat="53.761791844286044" lon="11.112824443279004"><ele>49.0</ele><time>2026-04-08T17:43:17.816Z</time></trkpt><trkpt lat="53.761927543416576" lon="11.112811646499418"><ele>48.0</ele><time>2026-04-08T17:43:18.816Z</time></trkpt><trkpt lat="53.76205958712634" lon="11.112795786237347"><ele>47.0</ele><time>2026-04-08T17:43:19.816Z</time></trkpt><trkpt lat="53.7621677544898" lon="11.112788357057402"><ele>46.0</ele><time>2026-04-08T17:43:20.816Z</time></trkpt><trkpt lat="53.762276613074306" lon="11.112790645570442"><ele>45.0</ele><time>2026-04-08T17:43:21.816Z</time></trkpt><trkpt lat="53.76237848002621" lon="11.112764340189589"><ele>45.0</ele><time>2026-04-08T17:43:22.816Z</time></trkpt><trkpt lat="53.762469370486784" lon="11.112768156320605"><ele>45.0</ele><time>2026-04-08T17:43:23.816Z</time></trkpt><trkpt lat="53.7625603452391" lon="11.112780545177998"><ele>45.0</ele><time>2026-04-08T17:43:24.816Z</time></trkpt><trkpt lat="53.762665349200496" lon="11.112765666941053"><ele>45.0</ele><time>2026-04-08T17:43:25.816Z</time></trkpt><trkpt lat="53.76278573572607" lon="11.11274585716044"><ele>45.0</ele><time>2026-04-08T17:43:26.816Z</time></trkpt><trkpt lat="53.76290357708243" lon="11.112707680810596"><ele>44.75</ele><time>2026-04-08T17:43:27.816Z</time></trkpt><trkpt lat="53.76303385598486" lon="11.112680215583376"><ele>44.5</ele><time>2026-04-08T17:43:28.816Z</time></trkpt><trkpt lat="53.76316253380074" lon="11.112645591744448"><ele>44.25</ele><time>2026-04-08T17:43:29.816Z</time></trkpt><trkpt lat="53.76327813419045" lon="11.11261632374312"><ele>44.0</ele><time>2026-04-08T17:43:30.816Z</time></trkpt><trkpt lat="53.76342465890215" lon="11.112620150806073"><ele>44.5</ele><time>2026-04-08T17:43:31.816Z</time></trkpt><trkpt lat="53.763549695885835" lon="11.112613020162277"><ele>45.0</ele><time>2026-04-08T17:43:32.816Z</time></trkpt><trkpt lat="53.76369534641573" lon="11.112676860194005"><ele>45.5</ele><time>2026-04-08T17:43:33.816Z</time></trkpt><trkpt lat="53.76380271223258" lon="11.112814463835688"><ele>46.0</ele><time>2026-04-08T17:43:34.816Z</time></trkpt><trkpt lat="53.76383126832087" lon="11.112976910186859"><ele>46.0</ele><time>2026-04-08T17:43:35.816Z</time></trkpt><trkpt lat="53.76384978573718" lon="11.113145573786495"><ele>46.0</ele><time>2026-04-08T17:43:36.816Z</time></trkpt><trkpt lat="53.76386317350851" lon="11.11334575562031"><ele>46.0</ele><time>2026-04-08T17:43:37.816Z</time></trkpt><trkpt lat="53.763876245840834" lon="11.11355454981575"><ele>46.0</ele><time>2026-04-08T17:43:38.816Z</time></trkpt><trkpt lat="53.7639086955634" lon="11.113754862141974"><ele>45.75</ele><time>2026-04-08T17:43:39.815Z</time></trkpt><trkpt lat="53.763948155584636" lon="11.113956761726488"><ele>45.5</ele><time>2026-04-08T17:43:40.815Z</time></trkpt><trkpt lat="53.76398666392451" lon="11.114145051944192"><ele>45.25</ele><time>2026-04-08T17:43:41.815Z</time></trkpt><trkpt lat="53.76402023155042" lon="11.114349801235633"><ele>45.0</ele><time>2026-04-08T17:43:42.815Z</time></trkpt><trkpt lat="53.76403551405194" lon="11.114548964648732"><ele>44.5</ele><time>2026-04-08T17:43:43.815Z</time></trkpt><trkpt lat="53.76408279372819" lon="11.114738950990644"><ele>44.0</ele><time>2026-04-08T17:43:44.815Z</time></trkpt><trkpt lat="53.76410196813049" lon="11.114961713974873"><ele>43.5</ele><time>2026-04-08T17:43:45.815Z</time></trkpt><trkpt lat="53.76412616983919" lon="11.115153149239005"><ele>43.0</ele><time>2026-04-08T17:43:46.815Z</time></trkpt><trkpt lat="53.764156384463654" lon="11.115384150205072"><ele>43.0</ele><time>2026-04-08T17:43:47.815Z</time></trkpt><trkpt lat="53.76419686729568" lon="11.115611299854688"><ele>43.0</ele><time>2026-04-08T17:43:48.815Z</time></trkpt><trkpt lat="53.76420233018461" lon="11.115831666410115"><ele>43.0</ele><time>2026-04-08T17:43:49.815Z</time></trkpt><trkpt lat="53.764218815575795" lon="11.116031717222699"><ele>43.0</ele><time>2026-04-08T17:43:50.815Z</time></trkpt><trkpt lat="53.76423110220722" lon="11.116219493641797"><ele>43.0</ele><time>2026-04-08T17:43:51.815Z</time></trkpt><trkpt lat="53.76423854053934" lon="11.116409396248795"><ele>43.0</ele><time>2026-04-08T17:43:52.815Z</time></trkpt><trkpt lat="53.7642486357928" lon="11.11661470586768"><ele>43.0</ele><time>2026-04-08T17:43:53.815Z</time></trkpt><trkpt lat="53.76424719882754" lon="11.116830321937826"><ele>43.0</ele><time>2026-04-08T17:43:54.815Z</time></trkpt><trkpt lat="53.764234733287594" lon="11.117014743967577"><ele>43.0</ele><time>2026-04-08T17:43:55.815Z</time></trkpt><trkpt lat="53.764237688764624" lon="11.117255433533634"><ele>43.0</ele><time>2026-04-08T17:43:56.815Z</time></trkpt><trkpt lat="53.764227328470355" lon="11.117460713798502"><ele>43.0</ele><time>2026-04-08T17:43:57.815Z</time></trkpt><trkpt lat="53.76421171863774" lon="11.117676112283652"><ele>43.0</ele><time>2026-04-08T17:43:58.815Z</time></trkpt><trkpt lat="53.76417368061255" lon="11.117881933146382"><ele>43.0</ele><time>2026-04-08T17:43:59.815Z</time></trkpt><trkpt lat="53.764160528500284" lon="11.11808818122255"><ele>43.0</ele><time>2026-04-08T17:44:00.815Z</time></trkpt><trkpt lat="53.76413016705601" lon="11.118293241914625"><ele>43.0</ele><time>2026-04-08T17:44:01.815Z</time></trkpt><trkpt lat="53.76410718777227" lon="11.118465328368675"><ele>43.0</ele><time>2026-04-08T17:44:02.815Z</time></trkpt><trkpt lat="53.76408412713357" lon="11.118641001378638"><ele>43.0</ele><time>2026-04-08T17:44:03.815Z</time></trkpt><trkpt lat="53.76406242363388" lon="11.118817522851424"><ele>43.0</ele><time>2026-04-08T17:44:04.815Z</time></trkpt><trkpt lat="53.76404288966364" lon="11.118977891396254"><ele>43.0</ele><time>2026-04-08T17:44:05.815Z</time></trkpt><trkpt lat="53.76402099400715" lon="11.119163099348718"><ele>43.0</ele><time>2026-04-08T17:44:06.815Z</time></trkpt><trkpt lat="53.763998796245176" lon="11.119340787272499"><ele>43.0</ele><time>2026-04-08T17:44:07.815Z</time></trkpt><trkpt lat="53.763976578793375" lon="11.119517150959899"><ele>43.25</ele><time>2026-04-08T17:44:08.815Z</time></trkpt><trkpt lat="53.76395302199241" lon="11.119703751147098"><ele>43.5</ele><time>2026-04-08T17:44:09.815Z</time></trkpt><trkpt lat="53.763927632729406" lon="11.119902264501178"><ele>43.75</ele><time>2026-04-08T17:44:10.815Z</time></trkpt><trkpt lat="53.763902854903435" lon="11.12009599736101"><ele>44.0</ele><time>2026-04-08T17:44:11.815Z</time></trkpt><trkpt lat="53.76387576964757" lon="11.120307771081196"><ele>44.0</ele><time>2026-04-08T17:44:12.815Z</time></trkpt><trkpt lat="53.76384965867182" lon="11.12051192735045"><ele>44.0</ele><time>2026-04-08T17:44:13.815Z</time></trkpt><trkpt lat="53.76382498453113" lon="11.120712957446896"><ele>44.0</ele><time>2026-04-08T17:44:14.815Z</time></trkpt><trkpt lat="53.76380302693964" lon="11.120930618777972"><ele>44.0</ele><time>2026-04-08T17:44:15.815Z</time></trkpt><trkpt lat="53.76378478229193" lon="11.121141692990197"><ele>44.0</ele><time>2026-04-08T17:44:16.815Z</time></trkpt><trkpt lat="53.763774405897834" lon="11.121353884844375"><ele>44.0</ele><time>2026-04-08T17:44:17.815Z</time></trkpt><trkpt lat="53.76379135297534" lon="11.121595949646416"><ele>44.0</ele><time>2026-04-08T17:44:18.815Z</time></trkpt><trkpt lat="53.7638281279941" lon="11.121798697524449"><ele>44.0</ele><time>2026-04-08T17:44:19.814Z</time></trkpt><trkpt lat="53.763856314886844" lon="11.121921730325637"><ele>44.0</ele><time>2026-04-08T17:44:20.814Z</time></trkpt><trkpt lat="53.76389627258791" lon="11.12208067434131"><ele>44.0</ele><time>2026-04-08T17:44:22.814Z</time></trkpt><trkpt lat="53.763937918741355" lon="11.122252049266226"><ele>44.0</ele><time>2026-04-08T17:44:24.814Z</time></trkpt><trkpt lat="53.763946418968686" lon="11.122434921331442"><ele>44.0</ele><time>2026-04-08T17:44:26.814Z</time></trkpt><trkpt lat="53.76391608905929" lon="11.122676043233636"><ele>44.2</ele><time>2026-04-08T17:44:28.814Z</time></trkpt><trkpt lat="53.76389341054152" lon="11.122831424102044"><ele>44.400000000000006</ele><time>2026-04-08T17:44:29.814Z</time></trkpt><trkpt lat="53.76388036228898" lon="11.123012523209098"><ele>44.6</ele><time>2026-04-08T17:44:30.814Z</time></trkpt><trkpt lat="53.76384925407807" lon="11.123164515359237"><ele>44.8</ele><time>2026-04-08T17:44:31.814Z</time></trkpt><trkpt lat="53.763811401854255" lon="11.123314764118069"><ele>45.0</ele><time>2026-04-08T17:44:32.814Z</time></trkpt><trkpt lat="53.763768792109644" lon="11.12349618283001"><ele>45.0</ele><time>2026-04-08T17:44:33.814Z</time></trkpt><trkpt lat="53.76374113324228" lon="11.123692983595006"><ele>45.0</ele><time>2026-04-08T17:44:34.814Z</time></trkpt><trkpt lat="53.76368324151639" lon="11.123867189473923"><ele>45.0</ele><time>2026-04-08T17:44:35.814Z</time></trkpt><trkpt lat="53.76364261823636" lon="11.12398422459266"><ele>45.0</ele><time>2026-04-08T17:44:36.814Z</time></trkpt><trkpt lat="53.76358266769444" lon="11.12411792139234"><ele>45.0</ele><time>2026-04-08T17:44:37.814Z</time></trkpt><trkpt lat="53.76349163252308" lon="11.124258679616954"><ele>46.5</ele><time>2026-04-08T17:44:38.814Z</time></trkpt><trkpt lat="53.763384939224444" lon="11.124368190373394"><ele>48.0</ele><time>2026-04-08T17:44:39.814Z</time></trkpt><trkpt lat="53.76328113934732" lon="11.12453720490879"><ele>49.5</ele><time>2026-04-08T17:44:40.814Z</time></trkpt><trkpt lat="53.76316325951197" lon="11.124679244857424"><ele>51.0</ele><time>2026-04-08T17:44:41.814Z</time></trkpt><trkpt lat="53.763052134195554" lon="11.12480814137026"><ele>51.0</ele><time>2026-04-08T17:44:42.814Z</time></trkpt><trkpt lat="53.762944517787574" lon="11.124940902254677"><ele>51.0</ele><time>2026-04-08T17:44:43.814Z</time></trkpt><trkpt lat="53.76284230003106" lon="11.125044565994768"><ele>51.0</ele><time>2026-04-08T17:44:44.814Z</time></trkpt><trkpt lat="53.76273635830322" lon="11.125110560495068"><ele>51.0</ele><time>2026-04-08T17:44:45.814Z</time></trkpt><trkpt lat="53.76262335286462" lon="11.125176347656355"><ele>51.75</ele><time>2026-04-08T17:44:46.814Z</time></trkpt><trkpt lat="53.762499973356064" lon="11.125258106154474"><ele>52.5</ele><time>2026-04-08T17:44:47.814Z</time></trkpt><trkpt lat="53.762373697819754" lon="11.125341022377219"><ele>53.25</ele><time>2026-04-08T17:44:48.814Z</time></trkpt><trkpt lat="53.76223851309633" lon="11.12542668148139"><ele>54.0</ele><time>2026-04-08T17:44:49.814Z</time></trkpt><trkpt lat="53.76210723451047" lon="11.125535402484324"><ele>54.0</ele><time>2026-04-08T17:44:50.814Z</time></trkpt><trkpt lat="53.761962941187306" lon="11.125594754102677"><ele>54.0</ele><time>2026-04-08T17:44:51.814Z</time></trkpt><trkpt lat="53.76181652613837" lon="11.12567961800996"><ele>54.0</ele><time>2026-04-08T17:44:52.814Z</time></trkpt><trkpt lat="53.7616737486252" lon="11.125790440992546"><ele>55.66666666666667</ele><time>2026-04-08T17:44:53.814Z</time></trkpt><trkpt lat="53.76152444612767" lon="11.12587274807955"><ele>57.333333333333336</ele><time>2026-04-08T17:44:54.814Z</time></trkpt><trkpt lat="53.76135442108671" lon="11.12593616409186"><ele>59.0</ele><time>2026-04-08T17:44:55.814Z</time></trkpt><trkpt lat="53.76117210869525" lon="11.126055751188028"><ele>60.0</ele><time>2026-04-08T17:44:56.814Z</time></trkpt><trkpt lat="53.760992747027075" lon="11.12612024563179"><ele>61.0</ele><time>2026-04-08T17:44:57.814Z</time></trkpt><trkpt lat="53.7608102383632" lon="11.126204128165915"><ele>62.0</ele><time>2026-04-08T17:44:58.814Z</time></trkpt><trkpt lat="53.760641310761066" lon="11.126285718228631"><ele>62.0</ele><time>2026-04-08T17:44:59.813Z</time></trkpt><trkpt lat="53.76047732017958" lon="11.126364923746534"><ele>62.0</ele><time>2026-04-08T17:45:00.813Z</time></trkpt><trkpt lat="53.760301208983314" lon="11.126449983497439"><ele>62.0</ele><time>2026-04-08T17:45:01.813Z</time></trkpt><trkpt lat="53.760122436686196" lon="11.126529741260756"><ele>62.5</ele><time>2026-04-08T17:45:02.813Z</time></trkpt><trkpt lat="53.75996677112899" lon="11.126596148992748"><ele>63.0</ele><time>2026-04-08T17:45:03.813Z</time></trkpt><trkpt lat="53.75982955642068" lon="11.126657371349141"><ele>63.5</ele><time>2026-04-08T17:45:04.813Z</time></trkpt><trkpt lat="53.75968944480232" lon="11.126724855333837"><ele>64.0</ele><time>2026-04-08T17:45:05.813Z</time></trkpt><trkpt lat="53.759576951063586" lon="11.126779837109739"><ele>64.0</ele><time>2026-04-08T17:45:06.813Z</time></trkpt><trkpt lat="53.75946714374753" lon="11.126833505882955"><ele>64.0</ele><time>2026-04-08T17:45:07.813Z</time></trkpt><trkpt lat="53.759368479188694" lon="11.126879084236968"><ele>64.0</ele><time>2026-04-08T17:45:08.813Z</time></trkpt><trkpt lat="53.75927495952682" lon="11.126932961369619"><ele>64.0</ele><time>2026-04-08T17:45:09.813Z</time></trkpt><trkpt lat="53.759143583428944" lon="11.126898264827204"><ele>64.0</ele><time>2026-04-08T17:45:10.813Z</time></trkpt><trkpt lat="53.7590114628676" lon="11.126886714118166"><ele>64.25</ele><time>2026-04-08T17:45:11.813Z</time></trkpt><trkpt lat="53.75888741531301" lon="11.126825236833577"><ele>64.5</ele><time>2026-04-08T17:45:12.813Z</time></trkpt><trkpt lat="53.75875447635571" lon="11.126814788752478"><ele>64.75</ele><time>2026-04-08T17:45:13.813Z</time></trkpt><trkpt lat="53.75861491880085" lon="11.1267663403805"><ele>65.0</ele><time>2026-04-08T17:45:14.813Z</time></trkpt><trkpt lat="53.7584741342695" lon="11.126736458367997"><ele>65.25</ele><time>2026-04-08T17:45:15.813Z</time></trkpt><trkpt lat="53.75833884175949" lon="11.12668541624287"><ele>65.5</ele><time>2026-04-08T17:45:16.813Z</time></trkpt><trkpt lat="53.75818938133337" lon="11.126636072075348"><ele>65.75</ele><time>2026-04-08T17:45:17.813Z</time></trkpt><trkpt lat="53.75804385760758" lon="11.126594821242994"><ele>66.0</ele><time>2026-04-08T17:45:18.813Z</time></trkpt><trkpt lat="53.75788108035205" lon="11.126546823407628"><ele>65.0</ele><time>2026-04-08T17:45:19.813Z</time></trkpt><trkpt lat="53.75771812588613" lon="11.126498773272166"><ele>64.0</ele><time>2026-04-08T17:45:20.813Z</time></trkpt><trkpt lat="53.757561929516264" lon="11.126478209841704"><ele>63.0</ele><time>2026-04-08T17:45:21.813Z</time></trkpt><trkpt lat="53.75743354182913" lon="11.12643394876785"><ele>63.0</ele><time>2026-04-08T17:45:22.813Z</time></trkpt><trkpt lat="53.75731200336635" lon="11.126403981771228"><ele>63.0</ele><time>2026-04-08T17:45:23.813Z</time></trkpt><trkpt lat="53.75721722198207" lon="11.126355997680799"><ele>63.0</ele><time>2026-04-08T17:45:24.813Z</time></trkpt><trkpt lat="53.757153656463984" lon="11.126336235027322"><ele>63.0</ele><time>2026-04-08T17:45:26.813Z</time></trkpt><trkpt lat="53.757077046530505" lon="11.12630968113022"><ele>63.0</ele><time>2026-04-08T17:45:29.813Z</time></trkpt><trkpt lat="53.756994015431495" lon="11.126275200064164"><ele>63.0</ele><time>2026-04-08T17:45:31.813Z</time></trkpt><trkpt lat="53.75688710387767" lon="11.126221662689954"><ele>63.0</ele><time>2026-04-08T17:45:33.813Z</time></trkpt><trkpt lat="53.756785865717646" lon="11.12617863167911"><ele>63.0</ele><time>2026-04-08T17:45:34.813Z</time></trkpt><trkpt lat="53.75669672146508" lon="11.12614286942068"><ele>63.0</ele><time>2026-04-08T17:45:35.813Z</time></trkpt><trkpt lat="53.756597728370345" lon="11.126103156024476"><ele>63.0</ele><time>2026-04-08T17:45:36.813Z</time></trkpt><trkpt lat="53.75647557488077" lon="11.12604986882651"><ele>63.0</ele><time>2026-04-08T17:45:37.813Z</time></trkpt><trkpt lat="53.756349737431" lon="11.125989794864868"><ele>63.0</ele><time>2026-04-08T17:45:38.813Z</time></trkpt><trkpt lat="53.756241811663934" lon="11.125957683553915"><ele>63.0</ele><time>2026-04-08T17:45:39.812Z</time></trkpt><trkpt lat="53.756121668817265" lon="11.125875464466098"><ele>63.0</ele><time>2026-04-08T17:45:40.812Z</time></trkpt><trkpt lat="53.755989124220356" lon="11.125808642931407"><ele>62.8</ele><time>2026-04-08T17:45:41.812Z</time></trkpt><trkpt lat="53.75587275663762" lon="11.125749976890182"><ele>62.599999999999994</ele><time>2026-04-08T17:45:42.812Z</time></trkpt><trkpt lat="53.75578027640834" lon="11.125703353560288"><ele>62.400000000000006</ele><time>2026-04-08T17:45:43.812Z</time></trkpt><trkpt lat="53.75564843517274" lon="11.125638702424466"><ele>62.2</ele><time>2026-04-08T17:45:44.812Z</time></trkpt><trkpt lat="53.7555680941097" lon="11.125599744750145"><ele>62.0</ele><time>2026-04-08T17:45:45.812Z</time></trkpt><trkpt lat="53.7554719937461" lon="11.125553503395176"><ele>62.0</ele><time>2026-04-08T17:45:46.812Z</time></trkpt><trkpt lat="53.755358904659936" lon="11.125518702193094"><ele>62.0</ele><time>2026-04-08T17:45:47.812Z</time></trkpt><trkpt lat="53.755277598866755" lon="11.125470186615006"><ele>62.0</ele><time>2026-04-08T17:45:48.812Z</time></trkpt><trkpt lat="53.75518706168195" lon="11.125441719107586"><ele>62.0</ele><time>2026-04-08T17:45:49.812Z</time></trkpt><trkpt lat="53.755095097422" lon="11.125375049328277"><ele>62.0</ele><time>2026-04-08T17:45:50.812Z</time></trkpt><trkpt lat="53.75499568985987" lon="11.12532844533542"><ele>62.50000000000001</ele><time>2026-04-08T17:45:51.812Z</time></trkpt><trkpt lat="53.75490355116466" lon="11.125304697200857"><ele>63.0</ele><time>2026-04-08T17:45:52.812Z</time></trkpt><trkpt lat="53.75483291168858" lon="11.125260565636763"><ele>63.5</ele><time>2026-04-08T17:45:53.812Z</time></trkpt><trkpt lat="53.75476676761326" lon="11.125227210907225"><ele>64.0</ele><time>2026-04-08T17:45:54.812Z</time></trkpt><trkpt lat="53.754687399469994" lon="11.125189047636209"><ele>64.5</ele><time>2026-04-08T17:45:55.812Z</time></trkpt><trkpt lat="53.754624621446325" lon="11.125158159879044"><ele>65.0</ele><time>2026-04-08T17:45:56.812Z</time></trkpt><trkpt lat="53.75454459985698" lon="11.125128128310772"><ele>65.0</ele><time>2026-04-08T17:45:57.812Z</time></trkpt><trkpt lat="53.75446663786036" lon="11.12509494934844"><ele>65.0</ele><time>2026-04-08T17:45:58.812Z</time></trkpt><trkpt lat="53.75439753337553" lon="11.12505966650839"><ele>65.0</ele><time>2026-04-08T17:45:59.812Z</time></trkpt><trkpt lat="53.75431181817784" lon="11.125010006725086"><ele>65.0</ele><time>2026-04-08T17:46:00.812Z</time></trkpt><trkpt lat="53.75422506621791" lon="11.125002652597914"><ele>65.0</ele><time>2026-04-08T17:46:01.812Z</time></trkpt><trkpt lat="53.75410725018863" lon="11.1249551863335"><ele>65.16666666666667</ele><time>2026-04-08T17:46:02.812Z</time></trkpt><trkpt lat="53.7540067561184" lon="11.124914874232163"><ele>65.33333333333334</ele><time>2026-04-08T17:46:03.812Z</time></trkpt><trkpt lat="53.753925173112876" lon="11.124892544799042"><ele>65.5</ele><time>2026-04-08T17:46:04.812Z</time></trkpt><trkpt lat="53.753834946447604" lon="11.124863692318067"><ele>65.66666666666667</ele><time>2026-04-08T17:46:06.812Z</time></trkpt><trkpt lat="53.75375301553136" lon="11.124849482980474"><ele>65.83333333333333</ele><time>2026-04-08T17:46:09.812Z</time></trkpt><trkpt lat="53.75368671026003" lon="11.124836571336628"><ele>66.0</ele><time>2026-04-08T17:46:15.812Z</time></trkpt><trkpt lat="53.75380056776847" lon="11.124873850317318"><ele>66.0</ele><time>2026-04-08T17:46:22.811Z</time></trkpt><trkpt lat="53.75388778616131" lon="11.124920338756237"><ele>66.0</ele><time>2026-04-08T17:46:23.811Z</time></trkpt><trkpt lat="53.75397914484524" lon="11.124969118014288"><ele>66.0</ele><time>2026-04-08T17:46:24.811Z</time></trkpt><trkpt lat="53.75408520828282" lon="11.12501069520829"><ele>66.0</ele><time>2026-04-08T17:46:25.811Z</time></trkpt><trkpt lat="53.754200030370875" lon="11.12505970570106"><ele>66.0</ele><time>2026-04-08T17:46:26.811Z</time></trkpt><trkpt lat="53.75429493832952" lon="11.125116940412521"><ele>65.75</ele><time>2026-04-08T17:46:27.811Z</time></trkpt><trkpt lat="53.75442062333578" lon="11.125177375476444"><ele>65.5</ele><time>2026-04-08T17:46:28.811Z</time></trkpt><trkpt lat="53.75452872337926" lon="11.125243381109431"><ele>65.25</ele><time>2026-04-08T17:46:29.811Z</time></trkpt><trkpt lat="53.75465703950369" lon="11.12531977219755"><ele>65.0</ele><time>2026-04-08T17:46:30.811Z</time></trkpt><trkpt lat="53.75478336575856" lon="11.125380591856542"><ele>65.0</ele><time>2026-04-08T17:46:31.811Z</time></trkpt><trkpt lat="53.75489843619721" lon="11.12543517009838"><ele>65.0</ele><time>2026-04-08T17:46:32.811Z</time></trkpt><trkpt lat="53.75500197108515" lon="11.125491971945355"><ele>65.0</ele><time>2026-04-08T17:46:33.811Z</time></trkpt><trkpt lat="53.755119013738856" lon="11.125556661154203"><ele>65.0</ele><time>2026-04-08T17:46:34.811Z</time></trkpt><trkpt lat="53.755229001380336" lon="11.125622013660484"><ele>65.0</ele><time>2026-04-08T17:46:35.811Z</time></trkpt><trkpt lat="53.75534021437544" lon="11.125685229286896"><ele>65.0</ele><time>2026-04-08T17:46:36.811Z</time></trkpt><trkpt lat="53.755466659285275" lon="11.125735171952247"><ele>65.0</ele><time>2026-04-08T17:46:37.811Z</time></trkpt><trkpt lat="53.7555672870709" lon="11.125797612240966"><ele>65.0</ele><time>2026-04-08T17:46:38.811Z</time></trkpt><trkpt lat="53.75569502956612" lon="11.125852888442875"><ele>65.0</ele><time>2026-04-08T17:46:39.811Z</time></trkpt><trkpt lat="53.75580596855386" lon="11.1259051198255"><ele>65.0</ele><time>2026-04-08T17:46:40.811Z</time></trkpt><trkpt lat="53.75591040606161" lon="11.125951354559374"><ele>65.0</ele><time>2026-04-08T17:46:41.811Z</time></trkpt><trkpt lat="53.75600097785495" lon="11.126003288936271"><ele>65.0</ele><time>2026-04-08T17:46:42.812Z</time></trkpt><trkpt lat="53.75608403986148" lon="11.126048117530834"><ele>65.0</ele><time>2026-04-08T17:46:43.999Z</time></trkpt><trkpt lat="53.7561656160331" lon="11.126087504007058"><ele>64.66666666666667</ele><time>2026-04-08T17:46:44.999Z</time></trkpt><trkpt lat="53.75623028262498" lon="11.126113229804671"><ele>64.33333333333334</ele><time>2026-04-08T17:46:45.999Z</time></trkpt><trkpt lat="53.756296577289646" lon="11.126141202588476"><ele>64.0</ele><time>2026-04-08T17:46:46.999Z</time></trkpt><trkpt lat="53.756376847551344" lon="11.126186277227786"><ele>63.66666666666667</ele><time>2026-04-08T17:46:47.999Z</time></trkpt><trkpt lat="53.756437797938965" lon="11.12621596842161"><ele>63.333333333333336</ele><time>2026-04-08T17:46:48.999Z</time></trkpt><trkpt lat="53.756520898818415" lon="11.126268821432898"><ele>63.0</ele><time>2026-04-08T17:46:50.999Z</time></trkpt><trkpt lat="53.75657036213523" lon="11.126402357311559"><ele>63.0</ele><time>2026-04-08T17:46:55Z</time></trkpt><trkpt lat="53.75664339078882" lon="11.12641670099879"><ele>63.0</ele><time>2026-04-08T17:46:58Z</time></trkpt><trkpt lat="53.7566966799504" lon="11.126264403245614"><ele>63.0</ele><time>2026-04-08T17:47:07Z</time></trkpt><trkpt lat="53.7568190679588" lon="11.126066689021146"><ele>63.0</ele><time>2026-04-08T17:47:18Z</time></trkpt><trkpt lat="53.7568663389578" lon="11.125904082723615"><ele>63.0</ele><time>2026-04-08T17:47:19Z</time></trkpt><trkpt lat="53.75692947876581" lon="11.125704571059464"><ele>63.0</ele><time>2026-04-08T17:47:20Z</time></trkpt><trkpt lat="53.75698040940511" lon="11.125516061711437"><ele>63.0</ele><time>2026-04-08T17:47:21Z</time></trkpt><trkpt lat="53.75703585901953" lon="11.125305937228518"><ele>63.0</ele><time>2026-04-08T17:47:22Z</time></trkpt><trkpt lat="53.757101955637076" lon="11.125085503131533"><ele>62.66666666666667</ele><time>2026-04-08T17:47:23Z</time></trkpt><trkpt lat="53.75716882594815" lon="11.124853668663366"><ele>62.333333333333336</ele><time>2026-04-08T17:47:24.001Z</time></trkpt><trkpt lat="53.75738960309061" lon="11.12472401064973"><ele>62.0</ele><time>2026-04-08T17:47:25.001Z</time></trkpt><trkpt lat="53.757458705160445" lon="11.124456780733526"><ele>62.0</ele><time>2026-04-08T17:47:26.001Z</time></trkpt><trkpt lat="53.75753287469299" lon="11.124169953985337"><ele>62.0</ele><time>2026-04-08T17:47:27.001Z</time></trkpt><trkpt lat="53.757610759230786" lon="11.123869243041618"><ele>62.0</ele><time>2026-04-08T17:47:28.001Z</time></trkpt><trkpt lat="53.757684664287765" lon="11.12358621658836"><ele>62.0</ele><time>2026-04-08T17:47:29.001Z</time></trkpt><trkpt lat="53.75776351375323" lon="11.123292097313998"><ele>62.0</ele><time>2026-04-08T17:47:30.001Z</time></trkpt><trkpt lat="53.75783863626194" lon="11.123009170643579"><ele>62.0</ele><time>2026-04-08T17:47:31.001Z</time></trkpt><trkpt lat="53.757907078917604" lon="11.122743582375913"><ele>62.0</ele><time>2026-04-08T17:47:32.001Z</time></trkpt><trkpt lat="53.75797973243361" lon="11.122461653844358"><ele>62.0</ele><time>2026-04-08T17:47:33.001Z</time></trkpt><trkpt lat="53.75805249193773" lon="11.122181535760197"><ele>62.0</ele><time>2026-04-08T17:47:34.001Z</time></trkpt><trkpt lat="53.75812526069762" lon="11.121909148123917"><ele>62.0</ele><time>2026-04-08T17:47:35.001Z</time></trkpt><trkpt lat="53.75820137786144" lon="11.121624225659161"><ele>62.0</ele><time>2026-04-08T17:47:36.001Z</time></trkpt><trkpt lat="53.75828194816063" lon="11.121326681668926"><ele>62.0</ele><time>2026-04-08T17:47:37.001Z</time></trkpt><trkpt lat="53.758356142615376" lon="11.121040508740302"><ele>61.66666666666667</ele><time>2026-04-08T17:47:38.001Z</time></trkpt><trkpt lat="53.75844442455103" lon="11.120772829171367"><ele>61.33333333333333</ele><time>2026-04-08T17:47:39.001Z</time></trkpt><trkpt lat="53.758537379501355" lon="11.12048102101131"><ele>61.0</ele><time>2026-04-08T17:47:40.001Z</time></trkpt><trkpt lat="53.75862801032614" lon="11.120185883763614"><ele>60.0</ele><time>2026-04-08T17:47:41.001Z</time></trkpt><trkpt lat="53.75870650753294" lon="11.119884977931006"><ele>59.0</ele><time>2026-04-08T17:47:42.001Z</time></trkpt><trkpt lat="53.75876835930023" lon="11.119585807121986"><ele>58.0</ele><time>2026-04-08T17:47:43.001Z</time></trkpt><trkpt lat="53.75904713998643" lon="11.118693083433698"><ele>58.0</ele><time>2026-04-08T17:47:46.001Z</time></trkpt><trkpt lat="53.75915416894459" lon="11.118415533922734"><ele>58.0</ele><time>2026-04-08T17:47:47.001Z</time></trkpt><trkpt lat="53.75922090435818" lon="11.118121350280779"><ele>58.0</ele><time>2026-04-08T17:47:48.001Z</time></trkpt><trkpt lat="53.759298043022866" lon="11.117830305034735"><ele>58.0</ele><time>2026-04-08T17:47:49.001Z</time></trkpt><trkpt lat="53.75936669200832" lon="11.11753342375615"><ele>58.0</ele><time>2026-04-08T17:47:50.001Z</time></trkpt><trkpt lat="53.759422714330974" lon="11.11723462358179"><ele>58.0</ele><time>2026-04-08T17:47:51.001Z</time></trkpt><trkpt lat="53.75951007903249" lon="11.11695296271388"><ele>57.0</ele><time>2026-04-08T17:47:52.001Z</time></trkpt><trkpt lat="53.759598364560006" lon="11.11670477826448"><ele>56.0</ele><time>2026-04-08T17:47:53.001Z</time></trkpt><trkpt lat="53.7596789177707" lon="11.116410777839718"><ele>55.0</ele><time>2026-04-08T17:47:54.001Z</time></trkpt><trkpt lat="53.75975481065528" lon="11.11610844534412"><ele>55.0</ele><time>2026-04-08T17:47:55.001Z</time></trkpt><trkpt lat="53.759842989060054" lon="11.115811075248986"><ele>55.0</ele><time>2026-04-08T17:47:56.001Z</time></trkpt><trkpt lat="53.75992430637519" lon="11.115488980731277"><ele>55.0</ele><time>2026-04-08T17:47:57.001Z</time></trkpt><trkpt lat="53.76001644439001" lon="11.1152032834165"><ele>54.666666666666664</ele><time>2026-04-08T17:47:58.001Z</time></trkpt><trkpt lat="53.760075178995216" lon="11.114892708652143"><ele>54.33333333333333</ele><time>2026-04-08T17:47:59.001Z</time></trkpt><trkpt lat="53.76016161965901" lon="11.114644495445612"><ele>54.0</ele><time>2026-04-08T17:48:00.001Z</time></trkpt><trkpt lat="53.76023805230986" lon="11.114413939660293"><ele>54.0</ele><time>2026-04-08T17:48:01.001Z</time></trkpt><trkpt lat="53.760305720135435" lon="11.114188543872395"><ele>54.0</ele><time>2026-04-08T17:48:02.001Z</time></trkpt><trkpt lat="53.76036416964448" lon="11.113979887272583"><ele>54.0</ele><time>2026-04-08T17:48:03.001Z</time></trkpt><trkpt lat="53.76041831268178" lon="11.113801957983972"><ele>54.0</ele><time>2026-04-08T17:48:04.001Z</time></trkpt><trkpt lat="53.76046211998018" lon="11.113629841268908"><ele>53.833333333333336</ele><time>2026-04-08T17:48:05.001Z</time></trkpt><trkpt lat="53.76051378616964" lon="11.113508910926045"><ele>53.66666666666667</ele><time>2026-04-08T17:48:06.001Z</time></trkpt><trkpt lat="53.760547484180314" lon="11.113399320474398"><ele>53.5</ele><time>2026-04-08T17:48:07.001Z</time></trkpt><trkpt lat="53.76057611260704" lon="11.11326286406994"><ele>53.333333333333336</ele><time>2026-04-08T17:48:08.001Z</time></trkpt><trkpt lat="53.76061213471161" lon="11.113147031031398"><ele>53.16666666666667</ele><time>2026-04-08T17:48:09.001Z</time></trkpt><trkpt lat="53.76066364133559" lon="11.11304033248075"><ele>53.0</ele><time>2026-04-08T17:48:10.001Z</time></trkpt><trkpt lat="53.760701664487236" lon="11.11291393187148"><ele>53.0</ele><time>2026-04-08T17:48:11.002Z</time></trkpt><trkpt lat="53.76074292511271" lon="11.112740137294125"><ele>53.0</ele><time>2026-04-08T17:48:12.002Z</time></trkpt><trkpt lat="53.760760314762315" lon="11.112533214571856"><ele>53.0</ele><time>2026-04-08T17:48:13.002Z</time></trkpt><trkpt lat="53.76079675764468" lon="11.11232930133709"><ele>53.0</ele><time>2026-04-08T17:48:14.002Z</time></trkpt><trkpt lat="53.76079703687654" lon="11.112117306136058"><ele>53.0</ele><time>2026-04-08T17:48:15.002Z</time></trkpt><trkpt lat="53.760817981475256" lon="11.111904803375184"><ele>53.0</ele><time>2026-04-08T17:48:16.002Z</time></trkpt><trkpt lat="53.760830774571005" lon="11.11165761458624"><ele>53.0</ele><time>2026-04-08T17:48:17.002Z</time></trkpt><trkpt lat="53.76084083896379" lon="11.111452682516578"><ele>53.0</ele><time>2026-04-08T17:48:18.002Z</time></trkpt><trkpt lat="53.760853864158825" lon="11.111167433984303"><ele>53.0</ele><time>2026-04-08T17:48:19.002Z</time></trkpt><trkpt lat="53.7608608930893" lon="11.111009059888593"><ele>53.0</ele><time>2026-04-08T17:48:20.002Z</time></trkpt><trkpt lat="53.76088013313668" lon="11.110738435863963"><ele>53.0</ele><time>2026-04-08T17:48:21.002Z</time></trkpt><trkpt lat="53.76091731670554" lon="11.1104778009845"><ele>53.0</ele><time>2026-04-08T17:48:22.002Z</time></trkpt><trkpt lat="53.76092782599322" lon="11.110237720394895"><ele>53.333333333333336</ele><time>2026-04-08T17:48:23.002Z</time></trkpt><trkpt lat="53.76092451105516" lon="11.109998588282421"><ele>53.66666666666667</ele><time>2026-04-08T17:48:24.002Z</time></trkpt><trkpt lat="53.76089090809677" lon="11.109691000396609"><ele>54.0</ele><time>2026-04-08T17:48:25.002Z</time></trkpt><trkpt lat="53.76091359873269" lon="11.109407580093631"><ele>54.0</ele><time>2026-04-08T17:48:26.002Z</time></trkpt><trkpt lat="53.76092656345452" lon="11.109114211407137"><ele>54.0</ele><time>2026-04-08T17:48:27.002Z</time></trkpt><trkpt lat="53.76092141435048" lon="11.1088382546018"><ele>54.0</ele><time>2026-04-08T17:48:28.002Z</time></trkpt><trkpt lat="53.76093107773588" lon="11.108587692091957"><ele>53.33333333333333</ele><time>2026-04-08T17:48:29.002Z</time></trkpt><trkpt lat="53.76094482373893" lon="11.108255520289703"><ele>52.666666666666664</ele><time>2026-04-08T17:48:30.002Z</time></trkpt><trkpt lat="53.76094877999997" lon="11.107951128841846"><ele>52.0</ele><time>2026-04-08T17:48:31.002Z</time></trkpt><trkpt lat="53.760970573210116" lon="11.107640589381873"><ele>52.666666666666664</ele><time>2026-04-08T17:48:32.002Z</time></trkpt><trkpt lat="53.76101801636823" lon="11.107308121969146"><ele>53.33333333333333</ele><time>2026-04-08T17:48:33.002Z</time></trkpt><trkpt lat="53.761036901014776" lon="11.107005599092734"><ele>54.0</ele><time>2026-04-08T17:48:34.002Z</time></trkpt><trkpt lat="53.76105497739119" lon="11.106683113250778"><ele>52.66666666666667</ele><time>2026-04-08T17:48:35.002Z</time></trkpt><trkpt lat="53.76108511502481" lon="11.106359203429555"><ele>51.333333333333336</ele><time>2026-04-08T17:48:36.002Z</time></trkpt><trkpt lat="53.76113275706109" lon="11.106045783025788"><ele>50.0</ele><time>2026-04-08T17:48:37.002Z</time></trkpt><trkpt lat="53.76119532317848" lon="11.105731047051467"><ele>50.0</ele><time>2026-04-08T17:48:38.002Z</time></trkpt><trkpt lat="53.76126624461693" lon="11.105434188301613"><ele>50.0</ele><time>2026-04-08T17:48:39.002Z</time></trkpt><trkpt lat="53.76137160785374" lon="11.105166514192677"><ele>50.0</ele><time>2026-04-08T17:48:40.002Z</time></trkpt><trkpt lat="53.76148714781159" lon="11.104909748688733"><ele>50.333333333333336</ele><time>2026-04-08T17:48:41.002Z</time></trkpt><trkpt lat="53.76158810808357" lon="11.10463520986456"><ele>50.66666666666667</ele><time>2026-04-08T17:48:42.002Z</time></trkpt><trkpt lat="53.76168914522655" lon="11.104377906832875"><ele>51.0</ele><time>2026-04-08T17:48:43.002Z</time></trkpt><trkpt lat="53.76177544096957" lon="11.104116020666005"><ele>51.0</ele><time>2026-04-08T17:48:44.002Z</time></trkpt><trkpt lat="53.76189298253099" lon="11.103844933132512"><ele>51.0</ele><time>2026-04-08T17:48:45.002Z</time></trkpt><trkpt lat="53.761986872186284" lon="11.103607996433395"><ele>51.0</ele><time>2026-04-08T17:48:46.002Z</time></trkpt><trkpt lat="53.76209998768689" lon="11.103378845384768"><ele>51.33333333333333</ele><time>2026-04-08T17:48:47.002Z</time></trkpt><trkpt lat="53.76221875382611" lon="11.103148347990041"><ele>51.666666666666664</ele><time>2026-04-08T17:48:48.002Z</time></trkpt><trkpt lat="53.762346131252954" lon="11.102920336010902"><ele>52.0</ele><time>2026-04-08T17:48:49.002Z</time></trkpt><trkpt lat="53.76247760107825" lon="11.102696201851236"><ele>52.0</ele><time>2026-04-08T17:48:50.002Z</time></trkpt><trkpt lat="53.76259373398016" lon="11.102476104471055"><ele>52.0</ele><time>2026-04-08T17:48:51.002Z</time></trkpt><trkpt lat="53.76271410007825" lon="11.102234781925711"><ele>52.0</ele><time>2026-04-08T17:48:52.002Z</time></trkpt><trkpt lat="53.76283183921437" lon="11.102011165468594"><ele>51.666666666666664</ele><time>2026-04-08T17:48:53.002Z</time></trkpt><trkpt lat="53.76295489785803" lon="11.101777639253685"><ele>51.33333333333333</ele><time>2026-04-08T17:48:54.002Z</time></trkpt><trkpt lat="53.76306773849948" lon="11.101524367239511"><ele>51.0</ele><time>2026-04-08T17:48:55.002Z</time></trkpt><trkpt lat="53.76319300664265" lon="11.101312767293427"><ele>51.0</ele><time>2026-04-08T17:48:56.002Z</time></trkpt><trkpt lat="53.76331416080732" lon="11.10106100975016"><ele>51.0</ele><time>2026-04-08T17:48:57.002Z</time></trkpt><trkpt lat="53.763423091101615" lon="11.100793668128759"><ele>51.0</ele><time>2026-04-08T17:48:58.002Z</time></trkpt><trkpt lat="53.763522538902336" lon="11.100515251763435"><ele>51.0</ele><time>2026-04-08T17:48:59.002Z</time></trkpt><trkpt lat="53.76360455198802" lon="11.100224147263482"><ele>51.0</ele><time>2026-04-08T17:49:00.002Z</time></trkpt><trkpt lat="53.763674432638105" lon="11.099960990170144"><ele>51.0</ele><time>2026-04-08T17:49:01.003Z</time></trkpt><trkpt lat="53.763732245191406" lon="11.099659969385073"><ele>51.0</ele><time>2026-04-08T17:49:02.003Z</time></trkpt><trkpt lat="53.76377981401781" lon="11.099371918223694"><ele>51.0</ele><time>2026-04-08T17:49:03.003Z</time></trkpt><trkpt lat="53.76380837484584" lon="11.09906129893204"><ele>51.0</ele><time>2026-04-08T17:49:04.003Z</time></trkpt><trkpt lat="53.763844441719655" lon="11.098775445023232"><ele>51.0</ele><time>2026-04-08T17:49:05.003Z</time></trkpt><trkpt lat="53.76389288542109" lon="11.098503247221268"><ele>51.0</ele><time>2026-04-08T17:49:06.003Z</time></trkpt><trkpt lat="53.76391974276384" lon="11.098222884459267"><ele>51.0</ele><time>2026-04-08T17:49:07.003Z</time></trkpt><trkpt lat="53.76393227552497" lon="11.09795903791526"><ele>51.0</ele><time>2026-04-08T17:49:08.003Z</time></trkpt><trkpt lat="53.763966356849544" lon="11.097712068796673"><ele>51.0</ele><time>2026-04-08T17:49:09.003Z</time></trkpt><trkpt lat="53.76400458499161" lon="11.097484796892099"><ele>51.0</ele><time>2026-04-08T17:49:10.003Z</time></trkpt><trkpt lat="53.76403593236853" lon="11.097274003659816"><ele>51.0</ele><time>2026-04-08T17:49:11.003Z</time></trkpt><trkpt lat="53.76407487612698" lon="11.097079012913612"><ele>50.666666666666664</ele><time>2026-04-08T17:49:12.003Z</time></trkpt><trkpt lat="53.7641276686497" lon="11.096968769231838"><ele>50.33333333333333</ele><time>2026-04-08T17:49:13.003Z</time></trkpt><trkpt lat="53.764104116203065" lon="11.09676617175832"><ele>50.0</ele><time>2026-04-08T17:49:16.003Z</time></trkpt><trkpt lat="53.76412529329933" lon="11.09664228795366"><ele>49.666666666666664</ele><time>2026-04-08T17:49:21.003Z</time></trkpt><trkpt lat="53.76419889548881" lon="11.096600265955141"><ele>49.33333333333333</ele><time>2026-04-08T17:49:24.003Z</time></trkpt><trkpt lat="53.76427839698821" lon="11.096584369068703"><ele>49.0</ele><time>2026-04-08T17:49:32.003Z</time></trkpt><trkpt lat="53.76435446911932" lon="11.096442158139926"><ele>49.0</ele><time>2026-04-08T17:49:34.003Z</time></trkpt><trkpt lat="53.76439012799303" lon="11.096320326459002"><ele>49.0</ele><time>2026-04-08T17:49:35.003Z</time></trkpt><trkpt lat="53.764438331798516" lon="11.096244022070671"><ele>49.0</ele><time>2026-04-08T17:49:36.003Z</time></trkpt><trkpt lat="53.76452001967355" lon="11.096147629124957"><ele>49.0</ele><time>2026-04-08T17:49:37.003Z</time></trkpt><trkpt lat="53.76461589953933" lon="11.096061303085044"><ele>49.0</ele><time>2026-04-08T17:49:38.003Z</time></trkpt><trkpt lat="53.7647021581731" lon="11.09596241662348"><ele>49.0</ele><time>2026-04-08T17:49:39.003Z</time></trkpt><trkpt lat="53.76477827074504" lon="11.095840505643185"><ele>49.0</ele><time>2026-04-08T17:49:40.003Z</time></trkpt><trkpt lat="53.764877019953786" lon="11.095727569885037"><ele>49.0</ele><time>2026-04-08T17:49:41.003Z</time></trkpt><trkpt lat="53.76498024275459" lon="11.095599871196146"><ele>49.0</ele><time>2026-04-08T17:49:42.003Z</time></trkpt><trkpt lat="53.7650844363054" lon="11.095471538401235"><ele>48.5</ele><time>2026-04-08T17:49:43.003Z</time></trkpt><trkpt lat="53.76519374726274" lon="11.0953534614051"><ele>48.0</ele><time>2026-04-08T17:49:44.003Z</time></trkpt><trkpt lat="53.76529900830145" lon="11.095254216750138"><ele>47.5</ele><time>2026-04-08T17:49:45.003Z</time></trkpt><trkpt lat="53.765390851451826" lon="11.095160912866996"><ele>47.0</ele><time>2026-04-08T17:49:46.003Z</time></trkpt><trkpt lat="53.76547730610209" lon="11.095096535269915"><ele>46.8</ele><time>2026-04-08T17:49:47.003Z</time></trkpt><trkpt lat="53.76555001730658" lon="11.095097093224062"><ele>46.6</ele><time>2026-04-08T17:49:48.003Z</time></trkpt><trkpt lat="53.76561904178003" lon="11.095093211216993"><ele>46.4</ele><time>2026-04-08T17:49:49.003Z</time></trkpt><trkpt lat="53.7655591316543" lon="11.095366615227011"><ele>46.199999999999996</ele><time>2026-04-08T17:49:50.003Z</time></trkpt><trkpt lat="53.76560857450839" lon="11.095534955342565"><ele>46.0</ele><time>2026-04-08T17:49:51.004Z</time></trkpt><trkpt lat="53.76565770368019" lon="11.095702227967157"><ele>46.25</ele><time>2026-04-08T17:49:52.004Z</time></trkpt><trkpt lat="53.765794757210344" lon="11.095823473723488"><ele>46.5</ele><time>2026-04-08T17:49:53.004Z</time></trkpt><trkpt lat="53.7658276679071" lon="11.096038926065843"><ele>46.75</ele><time>2026-04-08T17:49:54.004Z</time></trkpt><trkpt lat="53.76585970751129" lon="11.096221521587928"><ele>47.0</ele><time>2026-04-08T17:49:55.004Z</time></trkpt><trkpt lat="53.76592656802369" lon="11.096436777318017"><ele>47.0</ele><time>2026-04-08T17:49:56.004Z</time></trkpt><trkpt lat="53.76595239073567" lon="11.096696308304123"><ele>47.0</ele><time>2026-04-08T17:49:57.004Z</time></trkpt><trkpt lat="53.76602232052155" lon="11.096933766356981"><ele>47.0</ele><time>2026-04-08T17:49:58.004Z</time></trkpt><trkpt lat="53.76609547358317" lon="11.097183252918066"><ele>46.33333333333333</ele><time>2026-04-08T17:49:59.004Z</time></trkpt><trkpt lat="53.76617236362771" lon="11.09744548435363"><ele>45.666666666666664</ele><time>2026-04-08T17:50:00.004Z</time></trkpt><trkpt lat="53.76627049823962" lon="11.097738841810994"><ele>45.0</ele><time>2026-04-08T17:50:01.004Z</time></trkpt><trkpt lat="53.76638556181532" lon="11.097980013152057"><ele>45.0</ele><time>2026-04-08T17:50:02.004Z</time></trkpt><trkpt lat="53.76653528330926" lon="11.098142181409608"><ele>45.0</ele><time>2026-04-08T17:50:03.004Z</time></trkpt><trkpt lat="53.766646082049235" lon="11.098336633503752"><ele>45.0</ele><time>2026-04-08T17:50:04.004Z</time></trkpt><trkpt lat="53.76679114912177" lon="11.098448458559874"><ele>44.666666666666664</ele><time>2026-04-08T17:50:05.004Z</time></trkpt><trkpt lat="53.76695931625842" lon="11.098556934187776"><ele>44.33333333333333</ele><time>2026-04-08T17:50:06.004Z</time></trkpt><trkpt lat="53.7671578176711" lon="11.098589337964947"><ele>44.0</ele><time>2026-04-08T17:50:07.004Z</time></trkpt><trkpt lat="53.76733150769759" lon="11.09870369692829"><ele>44.0</ele><time>2026-04-08T17:50:08.004Z</time></trkpt><trkpt lat="53.7674864903475" lon="11.098866381839908"><ele>44.0</ele><time>2026-04-08T17:50:09.004Z</time></trkpt><trkpt lat="53.767652251555596" lon="11.099033936686176"><ele>44.0</ele><time>2026-04-08T17:50:10.004Z</time></trkpt><trkpt lat="53.767770152466625" lon="11.099230416798054"><ele>43.33333333333333</ele><time>2026-04-08T17:50:11.004Z</time></trkpt><trkpt lat="53.76793851123182" lon="11.099403886686071"><ele>42.666666666666664</ele><time>2026-04-08T17:50:12.004Z</time></trkpt><trkpt lat="53.768090619945454" lon="11.099627618536891"><ele>42.0</ele><time>2026-04-08T17:50:13.004Z</time></trkpt><trkpt lat="53.76824221150096" lon="11.09983104655201"><ele>41.0</ele><time>2026-04-08T17:50:14.004Z</time></trkpt><trkpt lat="53.768392969158256" lon="11.1000204615046"><ele>40.0</ele><time>2026-04-08T17:50:15.004Z</time></trkpt><trkpt lat="53.76854541236228" lon="11.10020413790415"><ele>39.0</ele><time>2026-04-08T17:50:16.004Z</time></trkpt><trkpt lat="53.768691276451385" lon="11.100383129447739"><ele>40.0</ele><time>2026-04-08T17:50:17.004Z</time></trkpt><trkpt lat="53.768840807625466" lon="11.100583539960798"><ele>41.0</ele><time>2026-04-08T17:50:18.004Z</time></trkpt><trkpt lat="53.76897267674788" lon="11.100775022224884"><ele>42.0</ele><time>2026-04-08T17:50:19.004Z</time></trkpt><trkpt lat="53.76910597676956" lon="11.100953128747141"><ele>42.0</ele><time>2026-04-08T17:50:20.004Z</time></trkpt><trkpt lat="53.76921948109437" lon="11.101152514993599"><ele>42.0</ele><time>2026-04-08T17:50:21.004Z</time></trkpt><trkpt lat="53.769347039074624" lon="11.101371516829744"><ele>42.0</ele><time>2026-04-08T17:50:22.004Z</time></trkpt><trkpt lat="53.76946339317694" lon="11.10157664770323"><ele>44.33333333333333</ele><time>2026-04-08T17:50:23.004Z</time></trkpt><trkpt lat="53.769572549232166" lon="11.10179655031208"><ele>46.666666666666664</ele><time>2026-04-08T17:50:24.004Z</time></trkpt><trkpt lat="53.76968374288616" lon="11.102014669988684"><ele>49.0</ele><time>2026-04-08T17:50:25.004Z</time></trkpt><trkpt lat="53.769795931854176" lon="11.102220959149099"><ele>49.0</ele><time>2026-04-08T17:50:26.004Z</time></trkpt><trkpt lat="53.7698708560113" lon="11.10234856196522"><ele>49.0</ele><time>2026-04-08T17:50:27.004Z</time></trkpt><trkpt lat="53.769995902333605" lon="11.102568960007469"><ele>49.0</ele><time>2026-04-08T17:50:28.004Z</time></trkpt><trkpt lat="53.77012093760374" lon="11.102767574990727"><ele>49.0</ele><time>2026-04-08T17:50:29.004Z</time></trkpt><trkpt lat="53.77028528239088" lon="11.10289454182029"><ele>49.0</ele><time>2026-04-08T17:50:30.004Z</time></trkpt><trkpt lat="53.77042368459301" lon="11.103034682417954"><ele>49.0</ele><time>2026-04-08T17:50:31.004Z</time></trkpt><trkpt lat="53.77056510412891" lon="11.103174074963551"><ele>48.0</ele><time>2026-04-08T17:50:32.004Z</time></trkpt><trkpt lat="53.77069019692059" lon="11.103344575653951"><ele>47.0</ele><time>2026-04-08T17:50:33.004Z</time></trkpt><trkpt lat="53.7708268956094" lon="11.103493531832887"><ele>46.0</ele><time>2026-04-08T17:50:34.004Z</time></trkpt><trkpt lat="53.77096482620646" lon="11.103642543911102"><ele>47.75</ele><time>2026-04-08T17:50:35.004Z</time></trkpt><trkpt lat="53.771088395614754" lon="11.103776797165414"><ele>49.5</ele><time>2026-04-08T17:50:36.004Z</time></trkpt><trkpt lat="53.77121426581126" lon="11.103917335178961"><ele>51.25</ele><time>2026-04-08T17:50:37.004Z</time></trkpt><trkpt lat="53.77133721993773" lon="11.104054384258584"><ele>53.0</ele><time>2026-04-08T17:50:38.004Z</time></trkpt><trkpt lat="53.7714568979079" lon="11.104185590082272"><ele>53.0</ele><time>2026-04-08T17:50:39.004Z</time></trkpt><trkpt lat="53.77157654773814" lon="11.104314422446562"><ele>53.0</ele><time>2026-04-08T17:50:40.004Z</time></trkpt><trkpt lat="53.771700432528625" lon="11.1044462466401"><ele>53.0</ele><time>2026-04-08T17:50:41.005Z</time></trkpt><trkpt lat="53.77182783247447" lon="11.104571720521081"><ele>53.0</ele><time>2026-04-08T17:50:42.005Z</time></trkpt><trkpt lat="53.77196030514443" lon="11.104712251545001"><ele>54.66666666666667</ele><time>2026-04-08T17:50:43.005Z</time></trkpt><trkpt lat="53.77208946146914" lon="11.104870661665146"><ele>56.33333333333333</ele><time>2026-04-08T17:50:44.005Z</time></trkpt><trkpt lat="53.772213979507214" lon="11.105009216873002"><ele>58.0</ele><time>2026-04-08T17:50:45.005Z</time></trkpt><trkpt lat="53.772353441589935" lon="11.10516356716079"><ele>58.33333333333333</ele><time>2026-04-08T17:50:46.005Z</time></trkpt><trkpt lat="53.772489924852586" lon="11.105317284784869"><ele>58.66666666666667</ele><time>2026-04-08T17:50:47.005Z</time></trkpt><trkpt lat="53.77264086778116" lon="11.105488622877003"><ele>59.0</ele><time>2026-04-08T17:50:48.005Z</time></trkpt><trkpt lat="53.77278596419219" lon="11.105650230275263"><ele>58.66666666666667</ele><time>2026-04-08T17:50:49.005Z</time></trkpt><trkpt lat="53.772932899754515" lon="11.105813703837715"><ele>58.33333333333333</ele><time>2026-04-08T17:50:50.005Z</time></trkpt><trkpt lat="53.773073099906625" lon="11.105969683886999"><ele>58.0</ele><time>2026-04-08T17:50:51.005Z</time></trkpt><trkpt lat="53.77321663637199" lon="11.106129375777583"><ele>58.0</ele><time>2026-04-08T17:50:52.005Z</time></trkpt><trkpt lat="53.77336458700593" lon="11.10629342674268"><ele>58.0</ele><time>2026-04-08T17:50:53.005Z</time></trkpt><trkpt lat="53.77352139085267" lon="11.10645890193536"><ele>58.0</ele><time>2026-04-08T17:50:54.005Z</time></trkpt><trkpt lat="53.773677706710835" lon="11.106626078778294"><ele>58.33333333333333</ele><time>2026-04-08T17:50:55.005Z</time></trkpt><trkpt lat="53.773822028447434" lon="11.1067867145531"><ele>58.66666666666667</ele><time>2026-04-08T17:50:56.005Z</time></trkpt><trkpt lat="53.77395580869443" lon="11.106954365707743"><ele>59.0</ele><time>2026-04-08T17:50:57.005Z</time></trkpt><trkpt lat="53.77408984905924" lon="11.107145257654146"><ele>59.0</ele><time>2026-04-08T17:50:58.005Z</time></trkpt><trkpt lat="53.77419755395062" lon="11.10737704102919"><ele>59.0</ele><time>2026-04-08T17:50:59.005Z</time></trkpt><trkpt lat="53.77428625246089" lon="11.107641279152025"><ele>59.0</ele><time>2026-04-08T17:51:00.005Z</time></trkpt><trkpt lat="53.774336053715274" lon="11.107881334925834"><ele>58.0</ele><time>2026-04-08T17:51:01.005Z</time></trkpt><trkpt lat="53.7743639427193" lon="11.10817494301848"><ele>57.0</ele><time>2026-04-08T17:51:02.005Z</time></trkpt><trkpt lat="53.77438668231806" lon="11.108519564475957"><ele>56.0</ele><time>2026-04-08T17:51:03.005Z</time></trkpt><trkpt lat="53.77440637664662" lon="11.108851904403574"><ele>56.0</ele><time>2026-04-08T17:51:04.005Z</time></trkpt><trkpt lat="53.77442382802428" lon="11.109146394749525"><ele>56.0</ele><time>2026-04-08T17:51:05.005Z</time></trkpt><trkpt lat="53.77444133187298" lon="11.109441770545455"><ele>56.0</ele><time>2026-04-08T17:51:06.005Z</time></trkpt><trkpt lat="53.77445735460199" lon="11.109712152595655"><ele>55.66666666666667</ele><time>2026-04-08T17:51:07.005Z</time></trkpt><trkpt lat="53.77447586887202" lon="11.110017161832452"><ele>55.33333333333333</ele><time>2026-04-08T17:51:08.005Z</time></trkpt><trkpt lat="53.77449380661242" lon="11.110304828502615"><ele>55.0</ele><time>2026-04-08T17:51:09.005Z</time></trkpt><trkpt lat="53.774511916213505" lon="11.110615434355728"><ele>54.0</ele><time>2026-04-08T17:51:10.005Z</time></trkpt><trkpt lat="53.77452828736672" lon="11.110910926175643"><ele>53.0</ele><time>2026-04-08T17:51:11.005Z</time></trkpt><trkpt lat="53.77454522266969" lon="11.111187220135491"><ele>52.0</ele><time>2026-04-08T17:51:12.005Z</time></trkpt><trkpt lat="53.77456187382531" lon="11.111448375962052"><ele>51.666666666666664</ele><time>2026-04-08T17:51:13.005Z</time></trkpt><trkpt lat="53.77457872199576" lon="11.111712621726262"><ele>51.33333333333333</ele><time>2026-04-08T17:51:14.005Z</time></trkpt><trkpt lat="53.77459608699088" lon="11.111993417054025"><ele>51.0</ele><time>2026-04-08T17:51:15.005Z</time></trkpt><trkpt lat="53.77461013272277" lon="11.112225371563172"><ele>50.5</ele><time>2026-04-08T17:51:16.005Z</time></trkpt><trkpt lat="53.77462248517661" lon="11.112429362879586"><ele>50.0</ele><time>2026-04-08T17:51:17.005Z</time></trkpt><trkpt lat="53.77463551670952" lon="11.112657819889012"><ele>49.5</ele><time>2026-04-08T17:51:18.005Z</time></trkpt><trkpt lat="53.774649739145715" lon="11.112920365357734"><ele>49.0</ele><time>2026-04-08T17:51:19.005Z</time></trkpt><trkpt lat="53.774665947759075" lon="11.113182538005642"><ele>48.666666666666664</ele><time>2026-04-08T17:51:20.005Z</time></trkpt><trkpt lat="53.774704403815065" lon="11.113486973204349"><ele>48.33333333333333</ele><time>2026-04-08T17:51:21.005Z</time></trkpt><trkpt lat="53.77474064923927" lon="11.113741213206172"><ele>48.0</ele><time>2026-04-08T17:51:22.005Z</time></trkpt><trkpt lat="53.77481139883017" lon="11.113925925121436"><ele>47.666666666666664</ele><time>2026-04-08T17:51:23.005Z</time></trkpt><trkpt lat="53.77492044813595" lon="11.114149664103616"><ele>47.33333333333333</ele><time>2026-04-08T17:51:24.005Z</time></trkpt><trkpt lat="53.7750543395355" lon="11.114353274889842"><ele>47.0</ele><time>2026-04-08T17:51:25.005Z</time></trkpt><trkpt lat="53.775152637904476" lon="11.114582662291737"><ele>48.0</ele><time>2026-04-08T17:51:26.005Z</time></trkpt><trkpt lat="53.77525881586614" lon="11.114802203987159"><ele>49.0</ele><time>2026-04-08T17:51:27.005Z</time></trkpt><trkpt lat="53.77532486541729" lon="11.115048020823343"><ele>50.0</ele><time>2026-04-08T17:51:28.005Z</time></trkpt><trkpt lat="53.775399925568735" lon="11.115229283828254"><ele>50.333333333333336</ele><time>2026-04-08T17:51:29.005Z</time></trkpt><trkpt lat="53.77548093190729" lon="11.115425036781172"><ele>50.66666666666667</ele><time>2026-04-08T17:51:30.005Z</time></trkpt><trkpt lat="53.775565878165885" lon="11.115632026958732"><ele>51.0</ele><time>2026-04-08T17:51:31.006Z</time></trkpt><trkpt lat="53.77565732405046" lon="11.1158598924165"><ele>51.66666666666667</ele><time>2026-04-08T17:51:32.006Z</time></trkpt><trkpt lat="53.775741478465584" lon="11.116069588954534"><ele>52.333333333333336</ele><time>2026-04-08T17:51:33.006Z</time></trkpt><trkpt lat="53.77583431620414" lon="11.116300064781969"><ele>53.0</ele><time>2026-04-08T17:51:34.006Z</time></trkpt><trkpt lat="53.77592863868656" lon="11.116534017951972"><ele>53.333333333333336</ele><time>2026-04-08T17:51:35.006Z</time></trkpt><trkpt lat="53.7760281440627" lon="11.116780826308972"><ele>53.66666666666667</ele><time>2026-04-08T17:51:36.006Z</time></trkpt><trkpt lat="53.77611516357952" lon="11.116991113836123"><ele>54.0</ele><time>2026-04-08T17:51:37.006Z</time></trkpt><trkpt lat="53.77621039871498" lon="11.117223075550752"><ele>54.25</ele><time>2026-04-08T17:51:38.006Z</time></trkpt><trkpt lat="53.776307525785086" lon="11.117459645424521"><ele>54.5</ele><time>2026-04-08T17:51:39.006Z</time></trkpt><trkpt lat="53.77639290427314" lon="11.117667599590257"><ele>54.75</ele><time>2026-04-08T17:51:40.006Z</time></trkpt><trkpt lat="53.77645298746769" lon="11.117818172232385"><ele>55.0</ele><time>2026-04-08T17:51:41.006Z</time></trkpt><trkpt lat="53.77650947227915" lon="11.117963852558594"><ele>55.0</ele><time>2026-04-08T17:51:42.006Z</time></trkpt><trkpt lat="53.77655561227813" lon="11.118087463202228"><ele>55.0</ele><time>2026-04-08T17:51:43.006Z</time></trkpt><trkpt lat="53.77659271669577" lon="11.118205453608365"><ele>55.0</ele><time>2026-04-08T17:51:44.006Z</time></trkpt><trkpt lat="53.77661985150972" lon="11.118303411352969"><ele>55.0</ele><time>2026-04-08T17:51:45.006Z</time></trkpt><trkpt lat="53.77677522033817" lon="11.118481230056277"><ele>55.0</ele><time>2026-04-08T17:51:48.006Z</time></trkpt><trkpt lat="53.77728269482654" lon="11.117884953564205"><ele>54.666666666666664</ele><time>2026-04-08T17:51:53.006Z</time></trkpt><trkpt lat="53.77715964000585" lon="11.117595282888026"><ele>54.33333333333333</ele><time>2026-04-08T17:51:54.006Z</time></trkpt><trkpt lat="53.777042664403616" lon="11.117410617037827"><ele>54.0</ele><time>2026-04-08T17:51:55.006Z</time></trkpt><trkpt lat="53.77693683484503" lon="11.117248824057913"><ele>54.0</ele><time>2026-04-08T17:51:56.006Z</time></trkpt><trkpt lat="53.77686267221467" lon="11.117179327533693"><ele>54.0</ele><time>2026-04-08T17:51:57.006Z</time></trkpt><trkpt lat="53.776755360583145" lon="11.117018497223768"><ele>54.0</ele><time>2026-04-08T17:51:58.006Z</time></trkpt><trkpt lat="53.77649179716327" lon="11.11664546042753"><ele>54.0</ele><time>2026-04-08T17:51:59.006Z</time></trkpt><trkpt lat="53.77646259247907" lon="11.116952622420444"><ele>54.0</ele><time>2026-04-08T17:52:00.006Z</time></trkpt><trkpt lat="53.776431981743755" lon="11.116723775474576"><ele>54.0</ele><time>2026-04-08T17:52:01.006Z</time></trkpt><trkpt lat="53.77628866863277" lon="11.116174619741697"><ele>53.5</ele><time>2026-04-08T17:52:02.006Z</time></trkpt><trkpt lat="53.776198831523004" lon="11.115941665852935"><ele>53.0</ele><time>2026-04-08T17:52:03.006Z</time></trkpt><trkpt lat="53.77579484587991" lon="11.11611797062501"><ele>53.0</ele><time>2026-04-08T17:52:04.006Z</time></trkpt><trkpt lat="53.775722628596334" lon="11.115922563525354"><ele>53.0</ele><time>2026-04-08T17:52:05.006Z</time></trkpt><trkpt lat="53.77562775262086" lon="11.115686150944278"><ele>53.0</ele><time>2026-04-08T17:52:06.007Z</time></trkpt><trkpt lat="53.77551982037112" lon="11.115421018214672"><ele>52.333333333333336</ele><time>2026-04-08T17:52:07.007Z</time></trkpt><trkpt lat="53.77541843148107" lon="11.115176010564738"><ele>51.66666666666667</ele><time>2026-04-08T17:52:08.007Z</time></trkpt><trkpt lat="53.77532153464" lon="11.114943028249968"><ele>51.0</ele><time>2026-04-08T17:52:09.007Z</time></trkpt><trkpt lat="53.77520546143811" lon="11.114666526866147"><ele>50.0</ele><time>2026-04-08T17:52:10.007Z</time></trkpt><trkpt lat="53.77510713724332" lon="11.114432305911464"><ele>49.0</ele><time>2026-04-08T17:52:11.007Z</time></trkpt><trkpt lat="53.77501380338769" lon="11.114209972586497"><ele>48.0</ele><time>2026-04-08T17:52:12.007Z</time></trkpt><trkpt lat="53.774907195399486" lon="11.11395601855833"><ele>48.0</ele><time>2026-04-08T17:52:13.007Z</time></trkpt><trkpt lat="53.77480344252884" lon="11.113716298181675"><ele>48.0</ele><time>2026-04-08T17:52:14.007Z</time></trkpt><trkpt lat="53.774727954402444" lon="11.11342237336193"><ele>48.0</ele><time>2026-04-08T17:52:15.007Z</time></trkpt><trkpt lat="53.77469177526285" lon="11.113067318383166"><ele>48.33333333333333</ele><time>2026-04-08T17:52:16.007Z</time></trkpt><trkpt lat="53.77467179279474" lon="11.112711250017295"><ele>48.666666666666664</ele><time>2026-04-08T17:52:17.007Z</time></trkpt><trkpt lat="53.7746662900628" lon="11.112375048134632"><ele>49.0</ele><time>2026-04-08T17:52:18.007Z</time></trkpt><trkpt lat="53.774654023069466" lon="11.112061283626826"><ele>49.666666666666664</ele><time>2026-04-08T17:52:19.007Z</time></trkpt><trkpt lat="53.77463418785883" lon="11.111757343287819"><ele>50.33333333333333</ele><time>2026-04-08T17:52:20.007Z</time></trkpt><trkpt lat="53.77461180047603" lon="11.111469255277715"><ele>51.0</ele><time>2026-04-08T17:52:21.007Z</time></trkpt><trkpt lat="53.77459831115699" lon="11.11118048448365"><ele>51.33333333333333</ele><time>2026-04-08T17:52:22.008Z</time></trkpt><trkpt lat="53.77459937722491" lon="11.110913499639263"><ele>51.666666666666664</ele><time>2026-04-08T17:52:23.008Z</time></trkpt><trkpt lat="53.774572817414956" lon="11.110634188260686"><ele>52.0</ele><time>2026-04-08T17:52:24.008Z</time></trkpt><trkpt lat="53.774531477514984" lon="11.110341757095442"><ele>53.0</ele><time>2026-04-08T17:52:25.008Z</time></trkpt><trkpt lat="53.77450623184315" lon="11.110042835667526"><ele>54.0</ele><time>2026-04-08T17:52:26.008Z</time></trkpt><trkpt lat="53.774494493175524" lon="11.109739756597712"><ele>55.0</ele><time>2026-04-08T17:52:27.008Z</time></trkpt><trkpt lat="53.774468093212036" lon="11.109445016638478"><ele>55.33333333333333</ele><time>2026-04-08T17:52:28.008Z</time></trkpt><trkpt lat="53.774458729410675" lon="11.109171580437897"><ele>55.66666666666667</ele><time>2026-04-08T17:52:29.008Z</time></trkpt><trkpt lat="53.77444130429197" lon="11.108877533215113"><ele>56.0</ele><time>2026-04-08T17:52:30.008Z</time></trkpt><trkpt lat="53.774424684861536" lon="11.108597081906016"><ele>56.0</ele><time>2026-04-08T17:52:31.008Z</time></trkpt><trkpt lat="53.77440638026904" lon="11.108301585172514"><ele>56.0</ele><time>2026-04-08T17:52:32.008Z</time></trkpt><trkpt lat="53.7743733089726" lon="11.107984158968488"><ele>56.0</ele><time>2026-04-08T17:52:33.008Z</time></trkpt><trkpt lat="53.77436212186992" lon="11.107724283277722"><ele>56.0</ele><time>2026-04-08T17:52:34.008Z</time></trkpt><trkpt lat="53.77431290512387" lon="11.10749051570955"><ele>56.0</ele><time>2026-04-08T17:52:35.008Z</time></trkpt><trkpt lat="53.77419539630019" lon="11.10723481010354"><ele>56.0</ele><time>2026-04-08T17:52:36.008Z</time></trkpt><trkpt lat="53.77405850079217" lon="11.107013064416883"><ele>57.0</ele><time>2026-04-08T17:52:37.008Z</time></trkpt><trkpt lat="53.77387751966919" lon="11.106801093880353"><ele>58.0</ele><time>2026-04-08T17:52:38.008Z</time></trkpt><trkpt lat="53.773718816822544" lon="11.106613315476785"><ele>59.0</ele><time>2026-04-08T17:52:39.008Z</time></trkpt><trkpt lat="53.77355413236212" lon="11.10642929405953"><ele>58.66666666666667</ele><time>2026-04-08T17:52:40.008Z</time></trkpt><trkpt lat="53.77339535270446" lon="11.10627687292308"><ele>58.33333333333333</ele><time>2026-04-08T17:52:41.008Z</time></trkpt><trkpt lat="53.77325163655" lon="11.106096846803812"><ele>58.0</ele><time>2026-04-08T17:52:42.008Z</time></trkpt><trkpt lat="53.77311494202327" lon="11.105936702143593"><ele>58.0</ele><time>2026-04-08T17:52:43.008Z</time></trkpt><trkpt lat="53.77298143605542" lon="11.105793091433837"><ele>58.0</ele><time>2026-04-08T17:52:44.008Z</time></trkpt><trkpt lat="53.77284783086843" lon="11.10563216691046"><ele>58.0</ele><time>2026-04-08T17:52:45.008Z</time></trkpt><trkpt lat="53.77271142338555" lon="11.10548101375835"><ele>58.33333333333333</ele><time>2026-04-08T17:52:46.008Z</time></trkpt><trkpt lat="53.772574603062715" lon="11.105314503589652"><ele>58.66666666666667</ele><time>2026-04-08T17:52:47.008Z</time></trkpt><trkpt lat="53.77242801634043" lon="11.10513978289584"><ele>59.0</ele><time>2026-04-08T17:52:48.008Z</time></trkpt><trkpt lat="53.77226832198898" lon="11.104957102629136"><ele>58.66666666666667</ele><time>2026-04-08T17:52:49.008Z</time></trkpt><trkpt lat="53.772121001589575" lon="11.104789630155325"><ele>58.33333333333333</ele><time>2026-04-08T17:52:50.008Z</time></trkpt><trkpt lat="53.771945554871415" lon="11.104585169316746"><ele>58.0</ele><time>2026-04-08T17:52:51.008Z</time></trkpt><trkpt lat="53.771766606035584" lon="11.104395303113428"><ele>57.0</ele><time>2026-04-08T17:52:52.008Z</time></trkpt><trkpt lat="53.77163952267969" lon="11.104208775005942"><ele>56.0</ele><time>2026-04-08T17:52:53.008Z</time></trkpt><trkpt lat="53.77147456479069" lon="11.104062910284489"><ele>55.0</ele><time>2026-04-08T17:52:54.008Z</time></trkpt><trkpt lat="53.7713120903523" lon="11.10387517451833"><ele>55.0</ele><time>2026-04-08T17:52:55.008Z</time></trkpt><trkpt lat="53.771145792252845" lon="11.103682614169854"><ele>55.0</ele><time>2026-04-08T17:52:56.008Z</time></trkpt><trkpt lat="53.77097633932751" lon="11.103537118642357"><ele>55.0</ele><time>2026-04-08T17:52:57.008Z</time></trkpt><trkpt lat="53.77081814099847" lon="11.103348234810177"><ele>53.0</ele><time>2026-04-08T17:52:58.008Z</time></trkpt><trkpt lat="53.77064871461944" lon="11.103160330871853"><ele>51.0</ele><time>2026-04-08T17:52:59.008Z</time></trkpt><trkpt lat="53.77047758664722" lon="11.10295300137157"><ele>49.0</ele><time>2026-04-08T17:53:00.008Z</time></trkpt><trkpt lat="53.77030878583198" lon="11.102771173580797"><ele>49.0</ele><time>2026-04-08T17:53:01.008Z</time></trkpt><trkpt lat="53.77013393003219" lon="11.102603515037226"><ele>49.0</ele><time>2026-04-08T17:53:02.008Z</time></trkpt><trkpt lat="53.76997302679547" lon="11.102434389640626"><ele>49.0</ele><time>2026-04-08T17:53:03.008Z</time></trkpt><trkpt lat="53.76983321562806" lon="11.102205424692901"><ele>49.0</ele><time>2026-04-08T17:53:04.008Z</time></trkpt><trkpt lat="53.76969356632813" lon="11.101948381655104"><ele>49.0</ele><time>2026-04-08T17:53:05.008Z</time></trkpt><trkpt lat="53.769560391775165" lon="11.101686485944542"><ele>49.0</ele><time>2026-04-08T17:53:06.008Z</time></trkpt><trkpt lat="53.76942047433431" lon="11.101417523872588"><ele>47.666666666666664</ele><time>2026-04-08T17:53:07.008Z</time></trkpt><trkpt lat="53.7692750142316" lon="11.10117530007007"><ele>46.33333333333333</ele><time>2026-04-08T17:53:08.008Z</time></trkpt><trkpt lat="53.76913013899778" lon="11.100939974826272"><ele>45.0</ele><time>2026-04-08T17:53:09.008Z</time></trkpt><trkpt lat="53.76897601881953" lon="11.100710108193683"><ele>45.0</ele><time>2026-04-08T17:53:10.008Z</time></trkpt><trkpt lat="53.76883138994013" lon="11.100490692554423"><ele>45.0</ele><time>2026-04-08T17:53:11.008Z</time></trkpt><trkpt lat="53.76869996970072" lon="11.100303654496662"><ele>45.0</ele><time>2026-04-08T17:53:12.009Z</time></trkpt><trkpt lat="53.76855965301172" lon="11.100103355694491"><ele>44.0</ele><time>2026-04-08T17:53:13.009Z</time></trkpt><trkpt lat="53.768411950763344" lon="11.099906843513107"><ele>43.0</ele><time>2026-04-08T17:53:14.009Z</time></trkpt><trkpt lat="53.76826593637478" lon="11.099696012238738"><ele>42.0</ele><time>2026-04-08T17:53:15.009Z</time></trkpt><trkpt lat="53.76811315797596" lon="11.099537075994897"><ele>42.0</ele><time>2026-04-08T17:53:16.009Z</time></trkpt><trkpt lat="53.767974218829416" lon="11.099311251441854"><ele>42.0</ele><time>2026-04-08T17:53:17.009Z</time></trkpt><trkpt lat="53.76780905656666" lon="11.099087889476138"><ele>42.0</ele><time>2026-04-08T17:53:18.009Z</time></trkpt><trkpt lat="53.767669749979206" lon="11.098911159729852"><ele>42.666666666666664</ele><time>2026-04-08T17:53:19.009Z</time></trkpt><trkpt lat="53.76749830886099" lon="11.098760210809269"><ele>43.33333333333333</ele><time>2026-04-08T17:53:20.009Z</time></trkpt><trkpt lat="53.767359465810245" lon="11.098565606177772"><ele>44.0</ele><time>2026-04-08T17:53:21.009Z</time></trkpt><trkpt lat="53.76716572545699" lon="11.098473260653506"><ele>44.0</ele><time>2026-04-08T17:53:22.009Z</time></trkpt><trkpt lat="53.766960217332944" lon="11.098423098432445"><ele>44.0</ele><time>2026-04-08T17:53:23.009Z</time></trkpt><trkpt lat="53.766780228331655" lon="11.09829103374865"><ele>44.0</ele><time>2026-04-08T17:53:24.009Z</time></trkpt><trkpt lat="53.76660000283785" lon="11.098161857337793"><ele>44.33333333333333</ele><time>2026-04-08T17:53:25.009Z</time></trkpt><trkpt lat="53.76645178137847" lon="11.098005426896144"><ele>44.666666666666664</ele><time>2026-04-08T17:53:26.009Z</time></trkpt><trkpt lat="53.76633687978192" lon="11.097802274190002"><ele>45.0</ele><time>2026-04-08T17:53:27.009Z</time></trkpt><trkpt lat="53.76624644152899" lon="11.097546019746517"><ele>45.0</ele><time>2026-04-08T17:53:28.009Z</time></trkpt><trkpt lat="53.766160627579055" lon="11.097276411944407"><ele>45.0</ele><time>2026-04-08T17:53:29.009Z</time></trkpt><trkpt lat="53.76609720180306" lon="11.09701422428146"><ele>45.0</ele><time>2026-04-08T17:53:30.009Z</time></trkpt><trkpt lat="53.76600633534379" lon="11.096754954209649"><ele>45.666666666666664</ele><time>2026-04-08T17:53:31.009Z</time></trkpt><trkpt lat="53.76593204007944" lon="11.09650244432231"><ele>46.33333333333333</ele><time>2026-04-08T17:53:32.009Z</time></trkpt><trkpt lat="53.765858138591675" lon="11.096252685706885"><ele>47.0</ele><time>2026-04-08T17:53:33.009Z</time></trkpt><trkpt lat="53.7657888496427" lon="11.096018590643467"><ele>47.0</ele><time>2026-04-08T17:53:34.009Z</time></trkpt><trkpt lat="53.76571882111547" lon="11.095782160136913"><ele>47.0</ele><time>2026-04-08T17:53:35.009Z</time></trkpt><trkpt lat="53.765656413821304" lon="11.095571460456187"><ele>47.0</ele><time>2026-04-08T17:53:36.009Z</time></trkpt><trkpt lat="53.76558750486535" lon="11.095334540180053"><ele>46.75</ele><time>2026-04-08T17:53:37.009Z</time></trkpt><trkpt lat="53.765543620085815" lon="11.095133754311181"><ele>46.5</ele><time>2026-04-08T17:53:38.009Z</time></trkpt><trkpt lat="53.76552548113858" lon="11.094935878633597"><ele>46.25</ele><time>2026-04-08T17:53:39.009Z</time></trkpt><trkpt lat="53.765548681540096" lon="11.094712822228738"><ele>46.0</ele><time>2026-04-08T17:53:40.009Z</time></trkpt><trkpt lat="53.7656213268257" lon="11.094484969648088"><ele>46.0</ele><time>2026-04-08T17:53:41.009Z</time></trkpt><trkpt lat="53.765735486434515" lon="11.094285928179755"><ele>46.0</ele><time>2026-04-08T17:53:42.009Z</time></trkpt><trkpt lat="53.765837905680385" lon="11.094127956446696"><ele>46.0</ele><time>2026-04-08T17:53:43.009Z</time></trkpt><trkpt lat="53.76595211297961" lon="11.09396275929413"><ele>44.66666666666667</ele><time>2026-04-08T17:53:44.009Z</time></trkpt><trkpt lat="53.76605916093205" lon="11.093770448771227"><ele>43.333333333333336</ele><time>2026-04-08T17:53:45.009Z</time></trkpt><trkpt lat="53.76618168480065" lon="11.0935820410783"><ele>42.0</ele><time>2026-04-08T17:53:46.009Z</time></trkpt><trkpt lat="53.76631821201157" lon="11.093418180091986"><ele>42.333333333333336</ele><time>2026-04-08T17:53:47.009Z</time></trkpt><trkpt lat="53.76644074434213" lon="11.093194752731966"><ele>42.66666666666667</ele><time>2026-04-08T17:53:48.009Z</time></trkpt><trkpt lat="53.76659364218238" lon="11.092962162219816"><ele>43.0</ele><time>2026-04-08T17:53:49.01Z</time></trkpt><trkpt lat="53.76667765199904" lon="11.09268072912187"><ele>42.66666666666667</ele><time>2026-04-08T17:53:50.01Z</time></trkpt><trkpt lat="53.76671903881235" lon="11.092360387631398"><ele>42.333333333333336</ele><time>2026-04-08T17:53:51.009Z</time></trkpt><trkpt lat="53.76672010050734" lon="11.092024928398043"><ele>42.0</ele><time>2026-04-08T17:53:52.009Z</time></trkpt><trkpt lat="53.76673685734813" lon="11.0917287652478"><ele>42.0</ele><time>2026-04-08T17:53:53.008Z</time></trkpt><trkpt lat="53.76675016299136" lon="11.09143424555555"><ele>42.0</ele><time>2026-04-08T17:53:54.008Z</time></trkpt><trkpt lat="53.76678521012906" lon="11.091214864687457"><ele>42.0</ele><time>2026-04-08T17:53:55.008Z</time></trkpt><trkpt lat="53.76680560409724" lon="11.09091154014885"><ele>41.666666666666664</ele><time>2026-04-08T17:53:56.007Z</time></trkpt><trkpt lat="53.76683265008206" lon="11.09061678040034"><ele>41.33333333333333</ele><time>2026-04-08T17:53:57.007Z</time></trkpt><trkpt lat="53.766848292583056" lon="11.090323934041946"><ele>41.0</ele><time>2026-04-08T17:53:58.006Z</time></trkpt><trkpt lat="53.76687104265655" lon="11.09003838168349"><ele>39.666666666666664</ele><time>2026-04-08T17:53:59.006Z</time></trkpt><trkpt lat="53.76692430724165" lon="11.089816455814718"><ele>38.333333333333336</ele><time>2026-04-08T17:54:00.006Z</time></trkpt><trkpt lat="53.766924950550475" lon="11.089469415029285"><ele>37.0</ele><time>2026-04-08T17:54:01.005Z</time></trkpt><trkpt lat="53.76697131705374" lon="11.089158098557242"><ele>37.333333333333336</ele><time>2026-04-08T17:54:02.005Z</time></trkpt><trkpt lat="53.76703583708175" lon="11.088850975726091"><ele>37.666666666666664</ele><time>2026-04-08T17:54:03.005Z</time></trkpt><trkpt lat="53.76714888210282" lon="11.088568525879918"><ele>38.0</ele><time>2026-04-08T17:54:04.004Z</time></trkpt><trkpt lat="53.76727796333435" lon="11.088367061209372"><ele>38.0</ele><time>2026-04-08T17:54:05.004Z</time></trkpt><trkpt lat="53.767431655815926" lon="11.088196187196607"><ele>38.0</ele><time>2026-04-08T17:54:06.004Z</time></trkpt><trkpt lat="53.76759013600608" lon="11.08801137812911"><ele>38.0</ele><time>2026-04-08T17:54:07.004Z</time></trkpt><trkpt lat="53.76775028277106" lon="11.087850637719479"><ele>37.666666666666664</ele><time>2026-04-08T17:54:08.004Z</time></trkpt><trkpt lat="53.767920064817226" lon="11.087672928716547"><ele>37.333333333333336</ele><time>2026-04-08T17:54:09.003Z</time></trkpt><trkpt lat="53.7680711929664" lon="11.08748277909111"><ele>37.0</ele><time>2026-04-08T17:54:10.003Z</time></trkpt><trkpt lat="53.76819545494704" lon="11.087258124474651"><ele>37.0</ele><time>2026-04-08T17:54:11.003Z</time></trkpt><trkpt lat="53.76833866577419" lon="11.087061364341729"><ele>37.0</ele><time>2026-04-08T17:54:12.003Z</time></trkpt><trkpt lat="53.76849111418184" lon="11.086901315886692"><ele>37.0</ele><time>2026-04-08T17:54:13.003Z</time></trkpt><trkpt lat="53.768633387833276" lon="11.086727032506952"><ele>36.66666666666667</ele><time>2026-04-08T17:54:14.003Z</time></trkpt><trkpt lat="53.76877213931012" lon="11.086537942832699"><ele>36.333333333333336</ele><time>2026-04-08T17:54:15.003Z</time></trkpt><trkpt lat="53.76891763942434" lon="11.086366472732033"><ele>36.0</ele><time>2026-04-08T17:54:16.002Z</time></trkpt><trkpt lat="53.769047023481754" lon="11.086190814205514"><ele>36.0</ele><time>2026-04-08T17:54:17.002Z</time></trkpt><trkpt lat="53.76917601397472" lon="11.08598837535718"><ele>36.0</ele><time>2026-04-08T17:54:18.002Z</time></trkpt><trkpt lat="53.7693240597801" lon="11.085809805086038"><ele>36.0</ele><time>2026-04-08T17:54:19.002Z</time></trkpt><trkpt lat="53.769473830746584" lon="11.085662864238717"><ele>35.0</ele><time>2026-04-08T17:54:20.002Z</time></trkpt><trkpt lat="53.76961708332003" lon="11.085490529967133"><ele>34.0</ele><time>2026-04-08T17:54:21.002Z</time></trkpt><trkpt lat="53.769764609930235" lon="11.085313053986638"><ele>33.0</ele><time>2026-04-08T17:54:22.002Z</time></trkpt><trkpt lat="53.769910237741065" lon="11.085137795674886"><ele>33.0</ele><time>2026-04-08T17:54:23.002Z</time></trkpt><trkpt lat="53.770065962511445" lon="11.084949778607637"><ele>33.0</ele><time>2026-04-08T17:54:24.002Z</time></trkpt><trkpt lat="53.770215795208706" lon="11.084770817872856"><ele>33.0</ele><time>2026-04-08T17:54:25.002Z</time></trkpt><trkpt lat="53.77037110813788" lon="11.084586129756492"><ele>33.0</ele><time>2026-04-08T17:54:26.002Z</time></trkpt><trkpt lat="53.77052460817932" lon="11.084403597408784"><ele>33.0</ele><time>2026-04-08T17:54:27.001Z</time></trkpt><trkpt lat="53.77067511944849" lon="11.08422461911514"><ele>33.0</ele><time>2026-04-08T17:54:28.001Z</time></trkpt><trkpt lat="53.770836183555765" lon="11.08403001216672"><ele>33.0</ele><time>2026-04-08T17:54:29.001Z</time></trkpt><trkpt lat="53.770995758189486" lon="11.083825857781086"><ele>33.0</ele><time>2026-04-08T17:54:30.001Z</time></trkpt><trkpt lat="53.77114997010589" lon="11.083604943105067"><ele>33.0</ele><time>2026-04-08T17:54:31.001Z</time></trkpt><trkpt lat="53.77126010778342" lon="11.083364472322064"><ele>32.333333333333336</ele><time>2026-04-08T17:54:32.001Z</time></trkpt><trkpt lat="53.77138878719832" lon="11.083138427599486"><ele>31.666666666666668</ele><time>2026-04-08T17:54:33.001Z</time></trkpt><trkpt lat="53.77147788480025" lon="11.082831856757796"><ele>31.0</ele><time>2026-04-08T17:54:34.001Z</time></trkpt><trkpt lat="53.77156029447537" lon="11.082534466606463"><ele>31.333333333333336</ele><time>2026-04-08T17:54:35.001Z</time></trkpt><trkpt lat="53.77165753206354" lon="11.082238010786524"><ele>31.666666666666664</ele><time>2026-04-08T17:54:36.001Z</time></trkpt><trkpt lat="53.77175696732225" lon="11.081944302094998"><ele>32.0</ele><time>2026-04-08T17:54:37.001Z</time></trkpt><trkpt lat="53.77186772172293" lon="11.081631324766605"><ele>33.666666666666664</ele><time>2026-04-08T17:54:38.001Z</time></trkpt><trkpt lat="53.77196529363832" lon="11.08132979186117"><ele>35.333333333333336</ele><time>2026-04-08T17:54:39.001Z</time></trkpt><trkpt lat="53.7720556885068" lon="11.0810328412208"><ele>37.0</ele><time>2026-04-08T17:54:40.001Z</time></trkpt><trkpt lat="53.77214859056766" lon="11.080798637417955"><ele>37.333333333333336</ele><time>2026-04-08T17:54:41.001Z</time></trkpt><trkpt lat="53.77223284038285" lon="11.080520804187612"><ele>37.666666666666664</ele><time>2026-04-08T17:54:42.001Z</time></trkpt><trkpt lat="53.772315195245476" lon="11.080261047312531"><ele>38.0</ele><time>2026-04-08T17:54:43.001Z</time></trkpt><trkpt lat="53.77239153746953" lon="11.080005898534433"><ele>38.0</ele><time>2026-04-08T17:54:44.001Z</time></trkpt><trkpt lat="53.77246280315887" lon="11.079741531338987"><ele>38.0</ele><time>2026-04-08T17:54:45.001Z</time></trkpt><trkpt lat="53.77253865627146" lon="11.079519336545886"><ele>38.0</ele><time>2026-04-08T17:54:46.001Z</time></trkpt><trkpt lat="53.77261524222616" lon="11.079245320196838"><ele>38.0</ele><time>2026-04-08T17:54:47.001Z</time></trkpt><trkpt lat="53.77268329366575" lon="11.078970888765967"><ele>38.0</ele><time>2026-04-08T17:54:48.001Z</time></trkpt><trkpt lat="53.77274019512985" lon="11.078707984353963"><ele>38.0</ele><time>2026-04-08T17:54:49.001Z</time></trkpt><trkpt lat="53.772759068078884" lon="11.078454711985104"><ele>36.666666666666664</ele><time>2026-04-08T17:54:50.001Z</time></trkpt><trkpt lat="53.77279674972788" lon="11.078187258272838"><ele>35.333333333333336</ele><time>2026-04-08T17:54:51.001Z</time></trkpt><trkpt lat="53.77282904336107" lon="11.077871719385094"><ele>34.0</ele><time>2026-04-08T17:54:52.001Z</time></trkpt><trkpt lat="53.77285499914048" lon="11.07754991680779"><ele>32.66666666666667</ele><time>2026-04-08T17:54:53.001Z</time></trkpt><trkpt lat="53.77287024415234" lon="11.077247063979764"><ele>31.333333333333336</ele><time>2026-04-08T17:54:54.001Z</time></trkpt><trkpt lat="53.772908162684246" lon="11.076908194180634"><ele>30.0</ele><time>2026-04-08T17:54:55.001Z</time></trkpt><trkpt lat="53.772942764739845" lon="11.07658935334537"><ele>28.666666666666664</ele><time>2026-04-08T17:54:56.001Z</time></trkpt><trkpt lat="53.77298541410154" lon="11.076273246987355"><ele>27.333333333333332</ele><time>2026-04-08T17:54:57.001Z</time></trkpt><trkpt lat="53.77301700796455" lon="11.075946096847199"><ele>26.0</ele><time>2026-04-08T17:54:58.001Z</time></trkpt><trkpt lat="53.773058118607864" lon="11.075653699431003"><ele>25.333333333333332</ele><time>2026-04-08T17:54:59.001Z</time></trkpt><trkpt lat="53.77311024396267" lon="11.075288667643736"><ele>24.666666666666664</ele><time>2026-04-08T17:55:00.001Z</time></trkpt><trkpt lat="53.773139836273586" lon="11.074954471967178"><ele>24.0</ele><time>2026-04-08T17:55:01.001Z</time></trkpt><trkpt lat="53.77315614240329" lon="11.074605627818297"><ele>24.0</ele><time>2026-04-08T17:55:02.001Z</time></trkpt><trkpt lat="53.773190720957786" lon="11.074236383133847"><ele>24.0</ele><time>2026-04-08T17:55:03.001Z</time></trkpt><trkpt lat="53.77322826455252" lon="11.073874639800692"><ele>24.0</ele><time>2026-04-08T17:55:04.001Z</time></trkpt><trkpt lat="53.77326227542249" lon="11.073559328632827"><ele>24.333333333333336</ele><time>2026-04-08T17:55:05.001Z</time></trkpt><trkpt lat="53.77330207101064" lon="11.073224937189286"><ele>24.666666666666668</ele><time>2026-04-08T17:55:06.001Z</time></trkpt><trkpt lat="53.77331978563939" lon="11.072962892723572"><ele>25.0</ele><time>2026-04-08T17:55:07.001Z</time></trkpt><trkpt lat="53.77336453875552" lon="11.072635292616805"><ele>25.666666666666668</ele><time>2026-04-08T17:55:08.001Z</time></trkpt><trkpt lat="53.77338098891674" lon="11.072315750243202"><ele>26.333333333333336</ele><time>2026-04-08T17:55:09.001Z</time></trkpt><trkpt lat="53.773407242099786" lon="11.0720122633156"><ele>27.0</ele><time>2026-04-08T17:55:10.001Z</time></trkpt><trkpt lat="53.77342941258461" lon="11.07170581996672"><ele>27.0</ele><time>2026-04-08T17:55:11.001Z</time></trkpt><trkpt lat="53.77345517750134" lon="11.071419435118631"><ele>27.0</ele><time>2026-04-08T17:55:12.001Z</time></trkpt><trkpt lat="53.77349836890643" lon="11.071095715195087"><ele>27.0</ele><time>2026-04-08T17:55:13.001Z</time></trkpt><trkpt lat="53.77354720654973" lon="11.070811341792632"><ele>28.333333333333336</ele><time>2026-04-08T17:55:14.001Z</time></trkpt><trkpt lat="53.77355871120733" lon="11.070564112877642"><ele>29.666666666666668</ele><time>2026-04-08T17:55:15.001Z</time></trkpt><trkpt lat="53.77358926327677" lon="11.070284203143844"><ele>31.0</ele><time>2026-04-08T17:55:16.001Z</time></trkpt><trkpt lat="53.77361439152937" lon="11.06999453588504"><ele>31.0</ele><time>2026-04-08T17:55:17.001Z</time></trkpt><trkpt lat="53.77363433791653" lon="11.06971922333158"><ele>31.0</ele><time>2026-04-08T17:55:18.001Z</time></trkpt><trkpt lat="53.77367620267402" lon="11.069404375949325"><ele>31.0</ele><time>2026-04-08T17:55:19.001Z</time></trkpt><trkpt lat="53.77372265360762" lon="11.06911699026014"><ele>29.666666666666668</ele><time>2026-04-08T17:55:20.001Z</time></trkpt><trkpt lat="53.773764967561824" lon="11.06879467772395"><ele>28.333333333333336</ele><time>2026-04-08T17:55:21.001Z</time></trkpt><trkpt lat="53.77379981592295" lon="11.068492155063886"><ele>27.0</ele><time>2026-04-08T17:55:22.001Z</time></trkpt><trkpt lat="53.773864272846694" lon="11.068210674268876"><ele>26.666666666666664</ele><time>2026-04-08T17:55:23.001Z</time></trkpt><trkpt lat="53.77392842001328" lon="11.067864366122757"><ele>26.333333333333332</ele><time>2026-04-08T17:55:24.001Z</time></trkpt><trkpt lat="53.77397842996534" lon="11.067551451651086"><ele>26.0</ele><time>2026-04-08T17:55:25.001Z</time></trkpt><trkpt lat="53.77405428596581" lon="11.067254527398298"><ele>26.0</ele><time>2026-04-08T17:55:26.001Z</time></trkpt><trkpt lat="53.77412644029857" lon="11.066965811497669"><ele>26.0</ele><time>2026-04-08T17:55:27.001Z</time></trkpt><trkpt lat="53.77422587237418" lon="11.066685604514781"><ele>26.0</ele><time>2026-04-08T17:55:28.001Z</time></trkpt><trkpt lat="53.77432646103274" lon="11.066385951484387"><ele>26.0</ele><time>2026-04-08T17:55:29.001Z</time></trkpt><trkpt lat="53.774423163201845" lon="11.066109246531633"><ele>26.0</ele><time>2026-04-08T17:55:30.001Z</time></trkpt><trkpt lat="53.7745469559253" lon="11.065823383498122"><ele>26.0</ele><time>2026-04-08T17:55:31.001Z</time></trkpt><trkpt lat="53.77464486427038" lon="11.065530263265106"><ele>26.0</ele><time>2026-04-08T17:55:32.001Z</time></trkpt><trkpt lat="53.77475307960258" lon="11.06524757846125"><ele>26.0</ele><time>2026-04-08T17:55:33.001Z</time></trkpt><trkpt lat="53.774848755139" lon="11.064986339154684"><ele>26.0</ele><time>2026-04-08T17:55:34.001Z</time></trkpt><trkpt lat="53.77494740035312" lon="11.06472852450509"><ele>26.0</ele><time>2026-04-08T17:55:35.001Z</time></trkpt><trkpt lat="53.7750493958967" lon="11.064465972707422"><ele>26.0</ele><time>2026-04-08T17:55:36.001Z</time></trkpt><trkpt lat="53.775169155150174" lon="11.064215347656516"><ele>26.0</ele><time>2026-04-08T17:55:37.001Z</time></trkpt><trkpt lat="53.77529522189327" lon="11.06400370597809"><ele>26.0</ele><time>2026-04-08T17:55:38.001Z</time></trkpt><trkpt lat="53.77542837132518" lon="11.063809651262396"><ele>26.0</ele><time>2026-04-08T17:55:39.001Z</time></trkpt><trkpt lat="53.77556053706506" lon="11.063616236307437"><ele>26.0</ele><time>2026-04-08T17:55:40.001Z</time></trkpt><trkpt lat="53.77568486525734" lon="11.063434787867774"><ele>26.666666666666664</ele><time>2026-04-08T17:55:41.001Z</time></trkpt><trkpt lat="53.7758055544141" lon="11.063252264640198"><ele>27.333333333333336</ele><time>2026-04-08T17:55:42.001Z</time></trkpt><trkpt lat="53.77592947857488" lon="11.063063617779507"><ele>28.0</ele><time>2026-04-08T17:55:43.001Z</time></trkpt><trkpt lat="53.77606036365922" lon="11.06288710337338"><ele>28.666666666666668</ele><time>2026-04-08T17:55:44.001Z</time></trkpt><trkpt lat="53.77617563128657" lon="11.062694735817686"><ele>29.333333333333336</ele><time>2026-04-08T17:55:45.001Z</time></trkpt><trkpt lat="53.7763094286875" lon="11.062533628418407"><ele>30.0</ele><time>2026-04-08T17:55:46.001Z</time></trkpt><trkpt lat="53.776441054175784" lon="11.062359078269855"><ele>30.0</ele><time>2026-04-08T17:55:47.001Z</time></trkpt><trkpt lat="53.776578161954376" lon="11.062194188515793"><ele>30.0</ele><time>2026-04-08T17:55:48.001Z</time></trkpt><trkpt lat="53.77668323250939" lon="11.062008168400528"><ele>30.0</ele><time>2026-04-08T17:55:49.001Z</time></trkpt><trkpt lat="53.776792894537" lon="11.061853034641134"><ele>29.75</ele><time>2026-04-08T17:55:50.001Z</time></trkpt><trkpt lat="53.776896012477835" lon="11.06170298238184"><ele>29.5</ele><time>2026-04-08T17:55:51.001Z</time></trkpt><trkpt lat="53.77700448912356" lon="11.061548973158231"><ele>29.25</ele><time>2026-04-08T17:55:52.001Z</time></trkpt><trkpt lat="53.777100713090476" lon="11.061371774902007"><ele>29.0</ele><time>2026-04-08T17:55:53.001Z</time></trkpt><trkpt lat="53.77721250395466" lon="11.061179837045069"><ele>29.0</ele><time>2026-04-08T17:55:54.001Z</time></trkpt><trkpt lat="53.77731579900892" lon="11.060973192971726"><ele>29.0</ele><time>2026-04-08T17:55:55.001Z</time></trkpt><trkpt lat="53.777418658408905" lon="11.060766244849937"><ele>29.0</ele><time>2026-04-08T17:55:56.001Z</time></trkpt><trkpt lat="53.77751077109704" lon="11.06056511163204"><ele>29.25</ele><time>2026-04-08T17:55:57.001Z</time></trkpt><trkpt lat="53.77759319972541" lon="11.060358152981244"><ele>29.5</ele><time>2026-04-08T17:55:58.001Z</time></trkpt><trkpt lat="53.77766683942404" lon="11.060152919875646"><ele>29.75</ele><time>2026-04-08T17:55:59.001Z</time></trkpt><trkpt lat="53.77773695107059" lon="11.059983051981574"><ele>30.0</ele><time>2026-04-08T17:56:00.001Z</time></trkpt><trkpt lat="53.777797613240956" lon="11.059770084156987"><ele>30.333333333333336</ele><time>2026-04-08T17:56:01.001Z</time></trkpt><trkpt lat="53.77788815615735" lon="11.05956396126074"><ele>30.666666666666668</ele><time>2026-04-08T17:56:02.001Z</time></trkpt><trkpt lat="53.77799034861156" lon="11.059343756105003"><ele>31.0</ele><time>2026-04-08T17:56:03.001Z</time></trkpt><trkpt lat="53.77810338812972" lon="11.0591025542428"><ele>31.666666666666668</ele><time>2026-04-08T17:56:04.001Z</time></trkpt><trkpt lat="53.77819317063134" lon="11.058905605077138"><ele>32.333333333333336</ele><time>2026-04-08T17:56:05.001Z</time></trkpt><trkpt lat="53.77826156419619" lon="11.05867740137527"><ele>33.0</ele><time>2026-04-08T17:56:06.001Z</time></trkpt><trkpt lat="53.77831226833728" lon="11.058433953193237"><ele>33.0</ele><time>2026-04-08T17:56:07.001Z</time></trkpt><trkpt lat="53.7783404048556" lon="11.058141675283242"><ele>33.0</ele><time>2026-04-08T17:56:08.001Z</time></trkpt><trkpt lat="53.778331122971515" lon="11.057795127735291"><ele>33.0</ele><time>2026-04-08T17:56:09.001Z</time></trkpt><trkpt lat="53.77828178365889" lon="11.057480913117878"><ele>32.333333333333336</ele><time>2026-04-08T17:56:10.001Z</time></trkpt><trkpt lat="53.77817043929453" lon="11.057211695196706"><ele>31.666666666666668</ele><time>2026-04-08T17:56:11.001Z</time></trkpt><trkpt lat="53.77812374866941" lon="11.056931995309633"><ele>31.0</ele><time>2026-04-08T17:56:12.001Z</time></trkpt><trkpt lat="53.77806988025582" lon="11.056627373847412"><ele>30.333333333333336</ele><time>2026-04-08T17:56:13.001Z</time></trkpt><trkpt lat="53.77804059862162" lon="11.056370634871973"><ele>29.666666666666664</ele><time>2026-04-08T17:56:14.001Z</time></trkpt><trkpt lat="53.778029205810306" lon="11.056077305586324"><ele>29.0</ele><time>2026-04-08T17:56:15.001Z</time></trkpt><trkpt lat="53.77804104664782" lon="11.055769531579575"><ele>28.0</ele><time>2026-04-08T17:56:16.001Z</time></trkpt><trkpt lat="53.77807325041563" lon="11.05547555465577"><ele>27.0</ele><time>2026-04-08T17:56:17.001Z</time></trkpt><trkpt lat="53.77812518348092" lon="11.055200085970158"><ele>26.0</ele><time>2026-04-08T17:56:18.001Z</time></trkpt><trkpt lat="53.77817384999747" lon="11.054943727164536"><ele>25.666666666666664</ele><time>2026-04-08T17:56:19.001Z</time></trkpt><trkpt lat="53.778212012154555" lon="11.054684807402944"><ele>25.333333333333336</ele><time>2026-04-08T17:56:20.001Z</time></trkpt><trkpt lat="53.77825077341426" lon="11.054423380219262"><ele>25.0</ele><time>2026-04-08T17:56:21.001Z</time></trkpt><trkpt lat="53.778306967819795" lon="11.05412102970392"><ele>25.0</ele><time>2026-04-08T17:56:22.001Z</time></trkpt><trkpt lat="53.77836342210036" lon="11.053839039043934"><ele>25.0</ele><time>2026-04-08T17:56:23.001Z</time></trkpt><trkpt lat="53.77843525109266" lon="11.053614670843157"><ele>25.0</ele><time>2026-04-08T17:56:24.001Z</time></trkpt><trkpt lat="53.77851427443744" lon="11.053337842182199"><ele>24.6</ele><time>2026-04-08T17:56:25.001Z</time></trkpt><trkpt lat="53.778588756040556" lon="11.05309478016659"><ele>24.2</ele><time>2026-04-08T17:56:26.001Z</time></trkpt><trkpt lat="53.77864578537607" lon="11.052905033112447"><ele>23.799999999999997</ele><time>2026-04-08T17:56:27.001Z</time></trkpt><trkpt lat="53.77867230535449" lon="11.052801469821654"><ele>23.4</ele><time>2026-04-08T17:56:28.001Z</time></trkpt><trkpt lat="53.778717581497645" lon="11.052664569673057"><ele>23.0</ele><time>2026-04-08T17:56:30.001Z</time></trkpt><trkpt lat="53.778740222952365" lon="11.05254516175315"><ele>23.0</ele><time>2026-04-08T17:56:33.001Z</time></trkpt><trkpt lat="53.77868262732381" lon="11.052692532843427"><ele>23.0</ele><time>2026-04-08T17:56:54.001Z</time></trkpt><trkpt lat="53.7786590808148" lon="11.052865186885377"><ele>23.0</ele><time>2026-04-08T17:56:56.001Z</time></trkpt><trkpt lat="53.778606093443614" lon="11.053056300941673"><ele>23.0</ele><time>2026-04-08T17:56:57.001Z</time></trkpt><trkpt lat="53.77851578638306" lon="11.053274044265422"><ele>23.666666666666668</ele><time>2026-04-08T17:56:58.001Z</time></trkpt><trkpt lat="53.77845295356898" lon="11.05351156543635"><ele>24.333333333333336</ele><time>2026-04-08T17:56:59.001Z</time></trkpt><trkpt lat="53.778358905610276" lon="11.053748391876644"><ele>25.0</ele><time>2026-04-08T17:57:00.001Z</time></trkpt><trkpt lat="53.778299115545316" lon="11.054007639330036"><ele>24.666666666666668</ele><time>2026-04-08T17:57:01.001Z</time></trkpt><trkpt lat="53.778240878221396" lon="11.054253378046024"><ele>24.333333333333336</ele><time>2026-04-08T17:57:02.001Z</time></trkpt><trkpt lat="53.7782018240672" lon="11.054516291533027"><ele>24.0</ele><time>2026-04-08T17:57:03.001Z</time></trkpt><trkpt lat="53.77814003119333" lon="11.054763602330722"><ele>24.666666666666664</ele><time>2026-04-08T17:57:04.001Z</time></trkpt><trkpt lat="53.77808668432702" lon="11.055078538041604"><ele>25.333333333333332</ele><time>2026-04-08T17:57:05.001Z</time></trkpt><trkpt lat="53.77804883313176" lon="11.055335358717725"><ele>26.0</ele><time>2026-04-08T17:57:06.001Z</time></trkpt><trkpt lat="53.77801915898934" lon="11.05559875034293"><ele>27.0</ele><time>2026-04-08T17:57:07.001Z</time></trkpt><trkpt lat="53.77800029436028" lon="11.055870477010332"><ele>28.0</ele><time>2026-04-08T17:57:08.001Z</time></trkpt><trkpt lat="53.77799578952493" lon="11.056138574247539"><ele>29.0</ele><time>2026-04-08T17:57:09.001Z</time></trkpt><trkpt lat="53.77801202449514" lon="11.056425342386124"><ele>29.666666666666664</ele><time>2026-04-08T17:57:10.001Z</time></trkpt><trkpt lat="53.778053953149275" lon="11.056732855856872"><ele>30.333333333333336</ele><time>2026-04-08T17:57:11.001Z</time></trkpt><trkpt lat="53.77810367533796" lon="11.056994907425075"><ele>31.0</ele><time>2026-04-08T17:57:12.001Z</time></trkpt><trkpt lat="53.778154930582836" lon="11.057249194340534"><ele>31.666666666666668</ele><time>2026-04-08T17:57:13.001Z</time></trkpt><trkpt lat="53.778209870080104" lon="11.057516232462456"><ele>32.333333333333336</ele><time>2026-04-08T17:57:14.001Z</time></trkpt><trkpt lat="53.778249914546684" lon="11.05775644747408"><ele>33.0</ele><time>2026-04-08T17:57:15.001Z</time></trkpt><trkpt lat="53.77826842990165" lon="11.057996420085551"><ele>33.0</ele><time>2026-04-08T17:57:16.001Z</time></trkpt><trkpt lat="53.77825537602558" lon="11.058273020588079"><ele>33.0</ele><time>2026-04-08T17:57:17.001Z</time></trkpt><trkpt lat="53.77821493881161" lon="11.058539292235324"><ele>33.0</ele><time>2026-04-08T17:57:18.001Z</time></trkpt><trkpt lat="53.77814294295095" lon="11.058795445587494"><ele>33.0</ele><time>2026-04-08T17:57:19.001Z</time></trkpt><trkpt lat="53.778061849834565" lon="11.059037571594821"><ele>33.0</ele><time>2026-04-08T17:57:20.001Z</time></trkpt><trkpt lat="53.777962946274215" lon="11.059277510711814"><ele>33.0</ele><time>2026-04-08T17:57:21.001Z</time></trkpt><trkpt lat="53.7778618484294" lon="11.059542128886493"><ele>32.333333333333336</ele><time>2026-04-08T17:57:22.001Z</time></trkpt><trkpt lat="53.777771411799215" lon="11.059781648851374"><ele>31.666666666666668</ele><time>2026-04-08T17:57:23.001Z</time></trkpt><trkpt lat="53.77768558653324" lon="11.060016800200948"><ele>31.0</ele><time>2026-04-08T17:57:24.001Z</time></trkpt><trkpt lat="53.77759880004478" lon="11.060242851596675"><ele>30.666666666666668</ele><time>2026-04-08T17:57:25.001Z</time></trkpt><trkpt lat="53.77751034674379" lon="11.0604632380108"><ele>30.333333333333336</ele><time>2026-04-08T17:57:26.001Z</time></trkpt><trkpt lat="53.777412951459475" lon="11.060690625400916"><ele>30.0</ele><time>2026-04-08T17:57:27.001Z</time></trkpt><trkpt lat="53.77730170081606" lon="11.060914804964666"><ele>29.666666666666664</ele><time>2026-04-08T17:57:28.001Z</time></trkpt><trkpt lat="53.777181842302596" lon="11.061137598302645"><ele>29.333333333333332</ele><time>2026-04-08T17:57:29.001Z</time></trkpt><trkpt lat="53.77705929304428" lon="11.06134432494098"><ele>29.0</ele><time>2026-04-08T17:57:30.001Z</time></trkpt><trkpt lat="53.77693913321682" lon="11.06153078875054"><ele>29.333333333333332</ele><time>2026-04-08T17:57:31.001Z</time></trkpt><trkpt lat="53.7768031861468" lon="11.061728824925348"><ele>29.666666666666664</ele><time>2026-04-08T17:57:32.001Z</time></trkpt><trkpt lat="53.776674476985015" lon="11.061916111016941"><ele>30.0</ele><time>2026-04-08T17:57:33.001Z</time></trkpt><trkpt lat="53.77652861187244" lon="11.062129004816061"><ele>30.0</ele><time>2026-04-08T17:57:34.001Z</time></trkpt><trkpt lat="53.776382732865336" lon="11.062344171089178"><ele>30.0</ele><time>2026-04-08T17:57:35.001Z</time></trkpt><trkpt lat="53.77623818737998" lon="11.062551834077603"><ele>30.0</ele><time>2026-04-08T17:57:36.001Z</time></trkpt><trkpt lat="53.77610005775884" lon="11.062753937469584"><ele>29.333333333333336</ele><time>2026-04-08T17:57:37.001Z</time></trkpt><trkpt lat="53.775964845502784" lon="11.062953576851308"><ele>28.666666666666668</ele><time>2026-04-08T17:57:38.001Z</time></trkpt><trkpt lat="53.77583243609247" lon="11.063142269249676"><ele>28.0</ele><time>2026-04-08T17:57:39.001Z</time></trkpt><trkpt lat="53.77570725000892" lon="11.063326599879815"><ele>27.333333333333336</ele><time>2026-04-08T17:57:40.001Z</time></trkpt><trkpt lat="53.77557950274517" lon="11.063514059658864"><ele>26.666666666666664</ele><time>2026-04-08T17:57:41.001Z</time></trkpt><trkpt lat="53.77545839396503" lon="11.063691735892538"><ele>26.0</ele><time>2026-04-08T17:57:42.001Z</time></trkpt><trkpt lat="53.77532287545721" lon="11.063888291419062"><ele>26.0</ele><time>2026-04-08T17:57:43.001Z</time></trkpt><trkpt lat="53.775201552461255" lon="11.064075794695032"><ele>26.0</ele><time>2026-04-08T17:57:44.001Z</time></trkpt><trkpt lat="53.77506799914786" lon="11.064331261818689"><ele>26.0</ele><time>2026-04-08T17:57:45.001Z</time></trkpt><trkpt lat="53.77498676125084" lon="11.06452735919464"><ele>26.0</ele><time>2026-04-08T17:57:46.001Z</time></trkpt><trkpt lat="53.77489160724106" lon="11.064780249412305"><ele>26.0</ele><time>2026-04-08T17:57:47.001Z</time></trkpt><trkpt lat="53.77479303127447" lon="11.06504840937728"><ele>26.0</ele><time>2026-04-08T17:57:48.001Z</time></trkpt><trkpt lat="53.774694148863965" lon="11.065318623651152"><ele>26.0</ele><time>2026-04-08T17:57:49.001Z</time></trkpt><trkpt lat="53.77459509982265" lon="11.065587684429769"><ele>26.0</ele><time>2026-04-08T17:57:50.001Z</time></trkpt><trkpt lat="53.77450241378574" lon="11.065838120752018"><ele>26.0</ele><time>2026-04-08T17:57:51.001Z</time></trkpt><trkpt lat="53.77440361854541" lon="11.066105063043773"><ele>26.0</ele><time>2026-04-08T17:57:52.001Z</time></trkpt><trkpt lat="53.77433095096803" lon="11.066305169418136"><ele>26.0</ele><time>2026-04-08T17:57:53.001Z</time></trkpt><trkpt lat="53.77423871012263" lon="11.066562923299319"><ele>26.0</ele><time>2026-04-08T17:57:54.001Z</time></trkpt><trkpt lat="53.774154578091405" lon="11.066806234684968"><ele>26.0</ele><time>2026-04-08T17:57:55.001Z</time></trkpt><trkpt lat="53.77408149221" lon="11.067034024984052"><ele>26.0</ele><time>2026-04-08T17:57:56.001Z</time></trkpt><trkpt lat="53.774009815876624" lon="11.067283388061544"><ele>26.0</ele><time>2026-04-08T17:57:57.001Z</time></trkpt><trkpt lat="53.77393883796992" lon="11.06754793271201"><ele>26.0</ele><time>2026-04-08T17:57:58.001Z</time></trkpt><trkpt lat="53.773871500071536" lon="11.067820026335072"><ele>26.0</ele><time>2026-04-08T17:57:59.001Z</time></trkpt><trkpt lat="53.77382253023678" lon="11.06805669350688"><ele>26.0</ele><time>2026-04-08T17:58:00.001Z</time></trkpt><trkpt lat="53.77377278232093" lon="11.068330826275043"><ele>26.333333333333332</ele><time>2026-04-08T17:58:01.001Z</time></trkpt><trkpt lat="53.77372469893278" lon="11.068635282464786"><ele>26.666666666666664</ele><time>2026-04-08T17:58:02.001Z</time></trkpt><trkpt lat="53.77368919698395" lon="11.068892670953431"><ele>27.0</ele><time>2026-04-08T17:58:03.001Z</time></trkpt><trkpt lat="53.773655482167655" lon="11.069189199403136"><ele>28.333333333333336</ele><time>2026-04-08T17:58:04.001Z</time></trkpt><trkpt lat="53.77362469197679" lon="11.06946876398422"><ele>29.666666666666668</ele><time>2026-04-08T17:58:05.001Z</time></trkpt><trkpt lat="53.7736076637066" lon="11.069793521086295"><ele>31.0</ele><time>2026-04-08T17:58:06.001Z</time></trkpt><trkpt lat="53.773563746566" lon="11.070089970072702"><ele>31.0</ele><time>2026-04-08T17:58:07.001Z</time></trkpt><trkpt lat="53.77353653713895" lon="11.070369283466825"><ele>31.0</ele><time>2026-04-08T17:58:08.001Z</time></trkpt><trkpt lat="53.77350965055561" lon="11.070645097500384"><ele>31.0</ele><time>2026-04-08T17:58:09.001Z</time></trkpt><trkpt lat="53.77348169767994" lon="11.070931392895636"><ele>30.333333333333336</ele><time>2026-04-08T17:58:10.001Z</time></trkpt><trkpt lat="53.7734514743303" lon="11.07123864474381"><ele>29.666666666666664</ele><time>2026-04-08T17:58:11.001Z</time></trkpt><trkpt lat="53.77342322990471" lon="11.071525778842268"><ele>29.0</ele><time>2026-04-08T17:58:12.001Z</time></trkpt><trkpt lat="53.77339334616426" lon="11.071829578271128"><ele>28.333333333333332</ele><time>2026-04-08T17:58:13.001Z</time></trkpt><trkpt lat="53.77336255953707" lon="11.07213110806652"><ele>27.666666666666664</ele><time>2026-04-08T17:58:14.001Z</time></trkpt><trkpt lat="53.773332295176694" lon="11.072424471551502"><ele>27.0</ele><time>2026-04-08T17:58:15.001Z</time></trkpt><trkpt lat="53.77330366318312" lon="11.072704859117612"><ele>26.333333333333336</ele><time>2026-04-08T17:58:16.001Z</time></trkpt><trkpt lat="53.7732728666003" lon="11.073006554044799"><ele>25.666666666666668</ele><time>2026-04-08T17:58:17.001Z</time></trkpt><trkpt lat="53.773239658341716" lon="11.073331874756441"><ele>25.0</ele><time>2026-04-08T17:58:18.001Z</time></trkpt><trkpt lat="53.77321419347915" lon="11.073584025761832"><ele>25.0</ele><time>2026-04-08T17:58:19.001Z</time></trkpt><trkpt lat="53.77318618972241" lon="11.073864806432029"><ele>25.0</ele><time>2026-04-08T17:58:20.001Z</time></trkpt><trkpt lat="53.7731565627755" lon="11.07416186216516"><ele>25.0</ele><time>2026-04-08T17:58:21.001Z</time></trkpt><trkpt lat="53.77312639796136" lon="11.074471784221684"><ele>24.666666666666668</ele><time>2026-04-08T17:58:22.001Z</time></trkpt><trkpt lat="53.77310219026883" lon="11.074726552383446"><ele>24.333333333333336</ele><time>2026-04-08T17:58:23.001Z</time></trkpt><trkpt lat="53.77307421815867" lon="11.075061351577537"><ele>24.0</ele><time>2026-04-08T17:58:24.001Z</time></trkpt><trkpt lat="53.77305309419441" lon="11.075329730573525"><ele>23.333333333333332</ele><time>2026-04-08T17:58:25.001Z</time></trkpt><trkpt lat="53.773013786359805" lon="11.075633266048499"><ele>22.666666666666664</ele><time>2026-04-08T17:58:26.001Z</time></trkpt><trkpt lat="53.77298253830516" lon="11.075936245730665"><ele>22.0</ele><time>2026-04-08T17:58:27.001Z</time></trkpt><trkpt lat="53.77295272526612" lon="11.076225311647232"><ele>23.333333333333332</ele><time>2026-04-08T17:58:28.001Z</time></trkpt><trkpt lat="53.77292768841043" lon="11.076475465804975"><ele>24.666666666666664</ele><time>2026-04-08T17:58:29.001Z</time></trkpt><trkpt lat="53.77290281558462" lon="11.076726233752261"><ele>26.0</ele><time>2026-04-08T17:58:30.001Z</time></trkpt><trkpt lat="53.77287762559345" lon="11.076980199453947"><ele>27.333333333333332</ele><time>2026-04-08T17:58:31.001Z</time></trkpt><trkpt lat="53.77285192289384" lon="11.077239334112424"><ele>28.666666666666664</ele><time>2026-04-08T17:58:32.001Z</time></trkpt><trkpt lat="53.77282074370877" lon="11.07752807083369"><ele>30.0</ele><time>2026-04-08T17:58:33.001Z</time></trkpt><trkpt lat="53.772793273651494" lon="11.077776747171912"><ele>31.333333333333336</ele><time>2026-04-08T17:58:34.001Z</time></trkpt><trkpt lat="53.772760159060056" lon="11.07804244934978"><ele>32.66666666666667</ele><time>2026-04-08T17:58:35.001Z</time></trkpt><trkpt lat="53.77272328678127" lon="11.078298890261008"><ele>34.0</ele><time>2026-04-08T17:58:36.001Z</time></trkpt><trkpt lat="53.7726744510048" lon="11.078595775442432"><ele>34.0</ele><time>2026-04-08T17:58:37.001Z</time></trkpt><trkpt lat="53.77262769373978" lon="11.078852466942227"><ele>34.0</ele><time>2026-04-08T17:58:38.001Z</time></trkpt><trkpt lat="53.772574586872544" lon="11.079115708549024"><ele>34.0</ele><time>2026-04-08T17:58:39.001Z</time></trkpt><trkpt lat="53.77251784939297" lon="11.079360394428758"><ele>35.333333333333336</ele><time>2026-04-08T17:58:40.001Z</time></trkpt><trkpt lat="53.772454384027085" lon="11.079604183142555"><ele>36.666666666666664</ele><time>2026-04-08T17:58:41.001Z</time></trkpt><trkpt lat="53.772390378224294" lon="11.079832641675043"><ele>38.0</ele><time>2026-04-08T17:58:42.001Z</time></trkpt><trkpt lat="53.772316312190696" lon="11.080076093363308"><ele>38.0</ele><time>2026-04-08T17:58:43.001Z</time></trkpt><trkpt lat="53.77223877597733" lon="11.080322420084054"><ele>38.0</ele><time>2026-04-08T17:58:44.001Z</time></trkpt><trkpt lat="53.77215665198737" lon="11.080583321971558"><ele>38.0</ele><time>2026-04-08T17:58:45.001Z</time></trkpt><trkpt lat="53.772077899437775" lon="11.080832887398328"><ele>37.666666666666664</ele><time>2026-04-08T17:58:46.001Z</time></trkpt><trkpt lat="53.77199920417925" lon="11.081080698907929"><ele>37.333333333333336</ele><time>2026-04-08T17:58:47.001Z</time></trkpt><trkpt lat="53.77191140534238" lon="11.08135263836507"><ele>37.0</ele><time>2026-04-08T17:58:48.001Z</time></trkpt><trkpt lat="53.77182913709487" lon="11.081607447866539"><ele>35.333333333333336</ele><time>2026-04-08T17:58:49.001Z</time></trkpt><trkpt lat="53.77174945806393" lon="11.081853970332167"><ele>33.666666666666664</ele><time>2026-04-08T17:58:50.001Z</time></trkpt><trkpt lat="53.77167725491297" lon="11.082134295756555"><ele>32.0</ele><time>2026-04-08T17:58:51.001Z</time></trkpt><trkpt lat="53.771591191410785" lon="11.082379738596687"><ele>31.666666666666664</ele><time>2026-04-08T17:58:52.001Z</time></trkpt><trkpt lat="53.771507286675856" lon="11.08264673765387"><ele>31.333333333333336</ele><time>2026-04-08T17:58:53.001Z</time></trkpt><trkpt lat="53.771413647380314" lon="11.082899021781998"><ele>31.0</ele><time>2026-04-08T17:58:54.001Z</time></trkpt><trkpt lat="53.771292366393354" lon="11.083192231410008"><ele>30.333333333333336</ele><time>2026-04-08T17:58:55.001Z</time></trkpt><trkpt lat="53.77119880576851" lon="11.083439648229847"><ele>29.666666666666664</ele><time>2026-04-08T17:58:56.001Z</time></trkpt><trkpt lat="53.77108133225438" lon="11.08363631426827"><ele>29.0</ele><time>2026-04-08T17:58:57.001Z</time></trkpt><trkpt lat="53.77094034103307" lon="11.083830318675474"><ele>30.0</ele><time>2026-04-08T17:58:58.001Z</time></trkpt><trkpt lat="53.770784453093015" lon="11.084023828905902"><ele>31.0</ele><time>2026-04-08T17:58:59.001Z</time></trkpt><trkpt lat="53.770624089877764" lon="11.084216658556604"><ele>32.0</ele><time>2026-04-08T17:59:00.001Z</time></trkpt><trkpt lat="53.77046997352866" lon="11.084399923686378"><ele>32.0</ele><time>2026-04-08T17:59:01.001Z</time></trkpt><trkpt lat="53.77031687999761" lon="11.084581972311373"><ele>32.0</ele><time>2026-04-08T17:59:02.001Z</time></trkpt><trkpt lat="53.770170337862986" lon="11.084756231395444"><ele>32.0</ele><time>2026-04-08T17:59:03.001Z</time></trkpt><trkpt lat="53.77004663572659" lon="11.084904120189844"><ele>32.33333333333333</ele><time>2026-04-08T17:59:04.001Z</time></trkpt><trkpt lat="53.76990951059317" lon="11.085069705334327"><ele>32.666666666666664</ele><time>2026-04-08T17:59:05.001Z</time></trkpt><trkpt lat="53.76976382443284" lon="11.085245090822703"><ele>33.0</ele><time>2026-04-08T17:59:06.001Z</time></trkpt><trkpt lat="53.769626134607385" lon="11.085410733171324"><ele>33.0</ele><time>2026-04-08T17:59:07.001Z</time></trkpt><trkpt lat="53.76949076440327" lon="11.085573584627847"><ele>33.0</ele><time>2026-04-08T17:59:08.001Z</time></trkpt><trkpt lat="53.769351463681154" lon="11.085739281645253"><ele>33.0</ele><time>2026-04-08T17:59:09.001Z</time></trkpt><trkpt lat="53.76921685643327" lon="11.08589595371133"><ele>34.0</ele><time>2026-04-08T17:59:10.001Z</time></trkpt><trkpt lat="53.769078377765155" lon="11.086056913473831"><ele>35.0</ele><time>2026-04-08T17:59:11.001Z</time></trkpt><trkpt lat="53.76893961968768" lon="11.086222409428062"><ele>36.0</ele><time>2026-04-08T17:59:12.001Z</time></trkpt><trkpt lat="53.76881195622422" lon="11.086377417433383"><ele>36.0</ele><time>2026-04-08T17:59:13.001Z</time></trkpt><trkpt lat="53.76865639922778" lon="11.08656860267819"><ele>36.0</ele><time>2026-04-08T17:59:14.001Z</time></trkpt><trkpt lat="53.76851868302024" lon="11.086740154687897"><ele>36.0</ele><time>2026-04-08T17:59:15.001Z</time></trkpt><trkpt lat="53.76836504273666" lon="11.086933193864477"><ele>36.0</ele><time>2026-04-08T17:59:16.001Z</time></trkpt><trkpt lat="53.768222454998686" lon="11.087113417451992"><ele>36.0</ele><time>2026-04-08T17:59:17.001Z</time></trkpt><trkpt lat="53.768079858638835" lon="11.087293732662204"><ele>36.0</ele><time>2026-04-08T17:59:18.001Z</time></trkpt><trkpt lat="53.7679398540878" lon="11.08747096835476"><ele>36.0</ele><time>2026-04-08T17:59:19.001Z</time></trkpt><trkpt lat="53.76779160187518" lon="11.087658645009196"><ele>36.0</ele><time>2026-04-08T17:59:20.001Z</time></trkpt><trkpt lat="53.76766791041019" lon="11.087809901540295"><ele>36.0</ele><time>2026-04-08T17:59:21.001Z</time></trkpt><trkpt lat="53.7675159879285" lon="11.087991633456507"><ele>36.666666666666664</ele><time>2026-04-08T17:59:22.001Z</time></trkpt><trkpt lat="53.767371084224564" lon="11.088173517598666"><ele>37.33333333333333</ele><time>2026-04-08T17:59:23.001Z</time></trkpt><trkpt lat="53.76723485087637" lon="11.088359792908449"><ele>38.0</ele><time>2026-04-08T17:59:24.001Z</time></trkpt><trkpt lat="53.76711944224854" lon="11.088564305528338"><ele>38.0</ele><time>2026-04-08T17:59:25.001Z</time></trkpt><trkpt lat="53.76704086549009" lon="11.088803329575311"><ele>38.0</ele><time>2026-04-08T17:59:26.001Z</time></trkpt><trkpt lat="53.766958347164596" lon="11.089027100704353"><ele>38.0</ele><time>2026-04-08T17:59:27.001Z</time></trkpt><trkpt lat="53.76692836972234" lon="11.089313214139342"><ele>37.666666666666664</ele><time>2026-04-08T17:59:28.001Z</time></trkpt><trkpt lat="53.7668943557029" lon="11.089590968610832"><ele>37.333333333333336</ele><time>2026-04-08T17:59:29.001Z</time></trkpt><trkpt lat="53.76686459975102" lon="11.089871237333773"><ele>37.0</ele><time>2026-04-08T17:59:30.001Z</time></trkpt><trkpt lat="53.76683705722843" lon="11.09015470590975"><ele>38.333333333333336</ele><time>2026-04-08T17:59:31.001Z</time></trkpt><trkpt lat="53.76680602202852" lon="11.090497300587804"><ele>39.666666666666664</ele><time>2026-04-08T17:59:32.001Z</time></trkpt><trkpt lat="53.76678485987631" lon="11.090746439367193"><ele>41.0</ele><time>2026-04-08T17:59:33.001Z</time></trkpt><trkpt lat="53.76676060114576" lon="11.09104378104959"><ele>41.33333333333333</ele><time>2026-04-08T17:59:34.001Z</time></trkpt><trkpt lat="53.7667398064974" lon="11.091329143222602"><ele>41.666666666666664</ele><time>2026-04-08T17:59:35.001Z</time></trkpt><trkpt lat="53.76671894666392" lon="11.091630371162099"><ele>42.0</ele><time>2026-04-08T17:59:36.001Z</time></trkpt><trkpt lat="53.766699257108215" lon="11.091941166033774"><ele>42.0</ele><time>2026-04-08T17:59:37.001Z</time></trkpt><trkpt lat="53.766679383035985" lon="11.092239027198593"><ele>42.0</ele><time>2026-04-08T17:59:38.001Z</time></trkpt><trkpt lat="53.76665457919328" lon="11.092540982263353"><ele>42.0</ele><time>2026-04-08T17:59:39.001Z</time></trkpt><trkpt lat="53.76660324550643" lon="11.092815045988951"><ele>42.0</ele><time>2026-04-08T17:59:40.001Z</time></trkpt><trkpt lat="53.76652743892441" lon="11.092999242999714"><ele>42.0</ele><time>2026-04-08T17:59:41.001Z</time></trkpt><trkpt lat="53.76639898288051" lon="11.093217378484846"><ele>42.0</ele><time>2026-04-08T17:59:42.001Z</time></trkpt><trkpt lat="53.76627272852268" lon="11.093411919994278"><ele>42.0</ele><time>2026-04-08T17:59:43.001Z</time></trkpt><trkpt lat="53.76615480344197" lon="11.093582664717479"><ele>42.0</ele><time>2026-04-08T17:59:44.001Z</time></trkpt><trkpt lat="53.76601135158072" lon="11.093798471382232"><ele>42.0</ele><time>2026-04-08T17:59:45.001Z</time></trkpt><trkpt lat="53.76588758994974" lon="11.093982621909685"><ele>43.0</ele><time>2026-04-08T17:59:46.001Z</time></trkpt><trkpt lat="53.765770996681155" lon="11.094150285822781"><ele>44.0</ele><time>2026-04-08T17:59:47.001Z</time></trkpt><trkpt lat="53.76564412536649" lon="11.094351992377716"><ele>45.0</ele><time>2026-04-08T17:59:48.001Z</time></trkpt><trkpt lat="53.7655451240276" lon="11.094584391250667"><ele>45.0</ele><time>2026-04-08T17:59:49.001Z</time></trkpt><trkpt lat="53.76549815467456" lon="11.094787348529032"><ele>45.0</ele><time>2026-04-08T17:59:50.001Z</time></trkpt><trkpt lat="53.76546884773434" lon="11.094947508584431"><ele>45.0</ele><time>2026-04-08T17:59:51.001Z</time></trkpt><trkpt lat="53.76541894130096" lon="11.095045260110215"><ele>45.0</ele><time>2026-04-08T17:59:52.001Z</time></trkpt><trkpt lat="53.76531824183969" lon="11.095150460777841"><ele>45.0</ele><time>2026-04-08T17:59:53.001Z</time></trkpt><trkpt lat="53.765228100581155" lon="11.095260921444865"><ele>45.4</ele><time>2026-04-08T17:59:54.001Z</time></trkpt><trkpt lat="53.765138150856316" lon="11.095367751223929"><ele>45.8</ele><time>2026-04-08T17:59:55.001Z</time></trkpt><trkpt lat="53.76505349077716" lon="11.095467228588916"><ele>46.2</ele><time>2026-04-08T17:59:56.001Z</time></trkpt><trkpt lat="53.764962588678515" lon="11.095571754474523"><ele>46.6</ele><time>2026-04-08T17:59:57.001Z</time></trkpt><trkpt lat="53.76487311062991" lon="11.095673456914307"><ele>47.0</ele><time>2026-04-08T17:59:58.001Z</time></trkpt><trkpt lat="53.76478461521097" lon="11.095774237709414"><ele>47.5</ele><time>2026-04-08T17:59:59.001Z</time></trkpt><trkpt lat="53.76469842972778" lon="11.095872387876243"><ele>48.0</ele><time>2026-04-08T18:00:00.001Z</time></trkpt><trkpt lat="53.764626949338" lon="11.09595379152882"><ele>48.5</ele><time>2026-04-08T18:00:01.001Z</time></trkpt><trkpt lat="53.76453306817195" lon="11.096140410659089"><ele>49.0</ele><time>2026-04-08T18:00:04.001Z</time></trkpt><trkpt lat="53.76462047918646" lon="11.096287718164794"><ele>49.0</ele><time>2026-04-08T18:00:05.001Z</time></trkpt><trkpt lat="53.764705119639686" lon="11.096318807549268"><ele>49.0</ele><time>2026-04-08T18:00:06.001Z</time></trkpt><trkpt lat="53.764804856515376" lon="11.096339599225775"><ele>49.0</ele><time>2026-04-08T18:00:07.001Z</time></trkpt><trkpt lat="53.76489982786167" lon="11.096352335388506"><ele>49.0</ele><time>2026-04-08T18:00:08.001Z</time></trkpt><trkpt lat="53.76498645041639" lon="11.096362980505514"><ele>49.0</ele><time>2026-04-08T18:00:09.001Z</time></trkpt><trkpt lat="53.76507875219269" lon="11.096373484050172"><ele>48.6</ele><time>2026-04-08T18:00:10.001Z</time></trkpt><trkpt lat="53.76521727141586" lon="11.096389849512358"><ele>48.2</ele><time>2026-04-08T18:00:12.001Z</time></trkpt><trkpt lat="53.765296083172174" lon="11.09643358963"><ele>47.800000000000004</ele><time>2026-04-08T18:00:13.001Z</time></trkpt><trkpt lat="53.76532423360577" lon="11.096543481852306"><ele>47.400000000000006</ele><time>2026-04-08T18:00:14.001Z</time></trkpt><trkpt lat="53.765352547364294" lon="11.096676980760337"><ele>47.0</ele><time>2026-04-08T18:00:15.001Z</time></trkpt><trkpt lat="53.765396003099866" lon="11.096808965394327"><ele>47.0</ele><time>2026-04-08T18:00:16.001Z</time></trkpt><trkpt lat="53.76542446283325" lon="11.096975826411448"><ele>47.0</ele><time>2026-04-08T18:00:17.001Z</time></trkpt><trkpt lat="53.76545128860203" lon="11.097122292277374"><ele>47.0</ele><time>2026-04-08T18:00:18.001Z</time></trkpt><trkpt lat="53.76548587423299" lon="11.097273207395613"><ele>47.0</ele><time>2026-04-08T18:00:19.001Z</time></trkpt><trkpt lat="53.76549250801588" lon="11.097503593178981"><ele>47.0</ele><time>2026-04-08T18:00:21.001Z</time></trkpt><trkpt lat="53.76542883350969" lon="11.097617954741828"><ele>47.0</ele><time>2026-04-08T18:00:23.001Z</time></trkpt><trkpt lat="53.765330229792866" lon="11.09763070028783"><ele>47.0</ele><time>2026-04-08T18:00:24.001Z</time></trkpt><trkpt lat="53.76524725434972" lon="11.097630122628832"><ele>47.0</ele><time>2026-04-08T18:00:25.001Z</time></trkpt><trkpt lat="53.76515169440656" lon="11.09762654990524"><ele>47.0</ele><time>2026-04-08T18:00:26.001Z</time></trkpt><trkpt lat="53.765062451713995" lon="11.097643352839786"><ele>47.0</ele><time>2026-04-08T18:00:27.001Z</time></trkpt><trkpt lat="53.76497500339327" lon="11.097613025240022"><ele>50.0</ele><time>2026-04-08T18:00:28.001Z</time></trkpt><trkpt lat="53.764894516385425" lon="11.09760616555286"><ele>50.0</ele><time>2026-04-08T18:00:29.001Z</time></trkpt><trkpt lat="53.76480676222545" lon="11.097598686503554"><ele>50.0</ele><time>2026-04-08T18:00:31.001Z</time></trkpt><trkpt lat="53.76472788928025" lon="11.097725921505559"><ele>50.0</ele><time>2026-04-08T18:00:35.001Z</time></trkpt><trkpt lat="53.76476309841058" lon="11.097815599854437"><ele>50.0</ele><time>2026-04-08T18:00:39.001Z</time></trkpt><trkpt lat="53.76479888395954" lon="11.097938030515623"><ele>50.0</ele><time>2026-04-08T18:00:43.001Z</time></trkpt></trkseg></trk></gpx>